<?xml version="1.0" encoding="UTF-8" standalone="no" ?>
<gpx xmlns="http://www.topografix.com/GPX/1/1" xmlns:xsi="http://www.w3.org/2001/XMLSchema-instance" xsi:schemaLocation="http://www.topografix.com/GPX/1/1 http://www.topografix.com/GPX/1/1/gpx.xsd" version="1.1" creator="VisuGPX - https://www.visugpx.com">
  <metadata>
    <name>2022-04-24 13:01:29</name>
  </metadata>
  <trk>
    <name><![CDATA[2022-04-24 13:01:29]]></name>
    <trkseg>
      <trkpt lat="44.82615" lon="4.68018">
        <ele>156.83</ele>
        <time>2022-04-24T06:25:05Z</time>
      </trkpt>
      <trkpt lat="44.82614" lon="4.6802">
        <ele>155.39</ele>
        <time>2022-04-24T06:25:23Z</time>
      </trkpt>
      <trkpt lat="44.82614" lon="4.6802">
        <ele>154.43</ele>
        <time>2022-04-24T06:25:49Z</time>
      </trkpt>
      <trkpt lat="44.82615" lon="4.68017">
        <ele>152.03</ele>
        <time>2022-04-24T06:26:18Z</time>
      </trkpt>
      <trkpt lat="44.82614" lon="4.68017">
        <ele>152.99</ele>
        <time>2022-04-24T06:26:54Z</time>
      </trkpt>
      <trkpt lat="44.82615" lon="4.68018">
        <ele>157.31</ele>
        <time>2022-04-24T06:27:24Z</time>
      </trkpt>
      <trkpt lat="44.82615" lon="4.68018">
        <ele>158.75</ele>
        <time>2022-04-24T06:27:52Z</time>
      </trkpt>
      <trkpt lat="44.82616" lon="4.6802">
        <ele>155.39</ele>
        <time>2022-04-24T06:28:19Z</time>
      </trkpt>
      <trkpt lat="44.82617" lon="4.68018">
        <ele>155.87</ele>
        <time>2022-04-24T06:29:01Z</time>
      </trkpt>
      <trkpt lat="44.82616" lon="4.6802">
        <ele>155.87</ele>
        <time>2022-04-24T06:29:33Z</time>
      </trkpt>
      <trkpt lat="44.82613" lon="4.68022">
        <ele>154.91</ele>
        <time>2022-04-24T06:30:09Z</time>
      </trkpt>
      <trkpt lat="44.82615" lon="4.68019">
        <ele>155.39</ele>
        <time>2022-04-24T06:30:41Z</time>
      </trkpt>
      <trkpt lat="44.82616" lon="4.6802">
        <ele>155.87</ele>
        <time>2022-04-24T06:31:15Z</time>
      </trkpt>
      <trkpt lat="44.82615" lon="4.68021">
        <ele>154.91</ele>
        <time>2022-04-24T06:31:32Z</time>
      </trkpt>
      <trkpt lat="44.82612" lon="4.68018">
        <ele>155.39</ele>
        <time>2022-04-24T06:32:25Z</time>
      </trkpt>
      <trkpt lat="44.82615" lon="4.68018">
        <ele>154.43</ele>
        <time>2022-04-24T06:33:05Z</time>
      </trkpt>
      <trkpt lat="44.82615" lon="4.68018">
        <ele>154.91</ele>
        <time>2022-04-24T06:33:42Z</time>
      </trkpt>
      <trkpt lat="44.82614" lon="4.6802">
        <ele>151.54</ele>
        <time>2022-04-24T06:34:27Z</time>
      </trkpt>
      <trkpt lat="44.82613" lon="4.68023">
        <ele>152.99</ele>
        <time>2022-04-24T06:34:37Z</time>
      </trkpt>
      <trkpt lat="44.82627" lon="4.68045">
        <ele>155.39</ele>
        <time>2022-04-24T06:34:55Z</time>
      </trkpt>
      <trkpt lat="44.82634" lon="4.68048">
        <ele>156.35</ele>
        <time>2022-04-24T06:35:04Z</time>
      </trkpt>
      <trkpt lat="44.82641" lon="4.68048">
        <ele>158.75</ele>
        <time>2022-04-24T06:35:14Z</time>
      </trkpt>
      <trkpt lat="44.82643" lon="4.68036">
        <ele>164.04</ele>
        <time>2022-04-24T06:35:24Z</time>
      </trkpt>
      <trkpt lat="44.82654" lon="4.68026">
        <ele>163.08</ele>
        <time>2022-04-24T06:35:34Z</time>
      </trkpt>
      <trkpt lat="44.82655" lon="4.68001">
        <ele>164.04</ele>
        <time>2022-04-24T06:35:49Z</time>
      </trkpt>
      <trkpt lat="44.82649" lon="4.67967">
        <ele>162.6</ele>
        <time>2022-04-24T06:36:07Z</time>
      </trkpt>
      <trkpt lat="44.82638" lon="4.67938">
        <ele>159.72</ele>
        <time>2022-04-24T06:36:25Z</time>
      </trkpt>
      <trkpt lat="44.82634" lon="4.67927">
        <ele>162.6</ele>
        <time>2022-04-24T06:36:38Z</time>
      </trkpt>
      <trkpt lat="44.8263" lon="4.67918">
        <ele>164.52</ele>
        <time>2022-04-24T06:36:46Z</time>
      </trkpt>
      <trkpt lat="44.82627" lon="4.67888">
        <ele>170.77</ele>
        <time>2022-04-24T06:37:04Z</time>
      </trkpt>
      <trkpt lat="44.82626" lon="4.67866">
        <ele>174.62</ele>
        <time>2022-04-24T06:37:20Z</time>
      </trkpt>
      <trkpt lat="44.82623" lon="4.67835">
        <ele>182.31</ele>
        <time>2022-04-24T06:37:41Z</time>
      </trkpt>
      <trkpt lat="44.82627" lon="4.67796">
        <ele>186.63</ele>
        <time>2022-04-24T06:38:02Z</time>
      </trkpt>
      <trkpt lat="44.82644" lon="4.67771">
        <ele>178.94</ele>
        <time>2022-04-24T06:38:17Z</time>
      </trkpt>
      <trkpt lat="44.82667" lon="4.67756">
        <ele>176.06</ele>
        <time>2022-04-24T06:38:35Z</time>
      </trkpt>
      <trkpt lat="44.82689" lon="4.67744">
        <ele>172.69</ele>
        <time>2022-04-24T06:38:50Z</time>
      </trkpt>
      <trkpt lat="44.82712" lon="4.67728">
        <ele>166.93</ele>
        <time>2022-04-24T06:39:08Z</time>
      </trkpt>
      <trkpt lat="44.82738" lon="4.67709">
        <ele>159.72</ele>
        <time>2022-04-24T06:39:27Z</time>
      </trkpt>
      <trkpt lat="44.82766" lon="4.67693">
        <ele>155.39</ele>
        <time>2022-04-24T06:39:49Z</time>
      </trkpt>
      <trkpt lat="44.8278" lon="4.67686">
        <ele>154.43</ele>
        <time>2022-04-24T06:40:00Z</time>
      </trkpt>
      <trkpt lat="44.82803" lon="4.67673">
        <ele>155.87</ele>
        <time>2022-04-24T06:40:20Z</time>
      </trkpt>
      <trkpt lat="44.82827" lon="4.67661">
        <ele>158.27</ele>
        <time>2022-04-24T06:40:38Z</time>
      </trkpt>
      <trkpt lat="44.8285" lon="4.67647">
        <ele>158.75</ele>
        <time>2022-04-24T06:40:56Z</time>
      </trkpt>
      <trkpt lat="44.82871" lon="4.67631">
        <ele>163.08</ele>
        <time>2022-04-24T06:41:13Z</time>
      </trkpt>
      <trkpt lat="44.82896" lon="4.67625">
        <ele>163.56</ele>
        <time>2022-04-24T06:41:31Z</time>
      </trkpt>
      <trkpt lat="44.82899" lon="4.67626">
        <ele>163.08</ele>
        <time>2022-04-24T06:41:35Z</time>
      </trkpt>
      <trkpt lat="44.82914" lon="4.67649">
        <ele>163.56</ele>
        <time>2022-04-24T06:41:53Z</time>
      </trkpt>
      <trkpt lat="44.82924" lon="4.6768">
        <ele>162.12</ele>
        <time>2022-04-24T06:42:12Z</time>
      </trkpt>
      <trkpt lat="44.82924" lon="4.67683">
        <ele>162.6</ele>
        <time>2022-04-24T06:42:14Z</time>
      </trkpt>
      <trkpt lat="44.8294" lon="4.67712">
        <ele>168.85</ele>
        <time>2022-04-24T06:42:34Z</time>
      </trkpt>
      <trkpt lat="44.82947" lon="4.67738">
        <ele>166.45</ele>
        <time>2022-04-24T06:42:47Z</time>
      </trkpt>
      <trkpt lat="44.82949" lon="4.67743">
        <ele>165.96</ele>
        <time>2022-04-24T06:42:50Z</time>
      </trkpt>
      <trkpt lat="44.8296" lon="4.67769">
        <ele>164.04</ele>
        <time>2022-04-24T06:43:08Z</time>
      </trkpt>
      <trkpt lat="44.82956" lon="4.67801">
        <ele>159.24</ele>
        <time>2022-04-24T06:43:25Z</time>
      </trkpt>
      <trkpt lat="44.82957" lon="4.67819">
        <ele>156.35</ele>
        <time>2022-04-24T06:43:40Z</time>
      </trkpt>
      <trkpt lat="44.82954" lon="4.67833">
        <ele>155.39</ele>
        <time>2022-04-24T06:43:57Z</time>
      </trkpt>
      <trkpt lat="44.82954" lon="4.67864">
        <ele>155.39</ele>
        <time>2022-04-24T06:44:15Z</time>
      </trkpt>
      <trkpt lat="44.82955" lon="4.67899">
        <ele>152.99</ele>
        <time>2022-04-24T06:44:33Z</time>
      </trkpt>
      <trkpt lat="44.82954" lon="4.67926">
        <ele>153.95</ele>
        <time>2022-04-24T06:44:47Z</time>
      </trkpt>
      <trkpt lat="44.82952" lon="4.67963">
        <ele>155.39</ele>
        <time>2022-04-24T06:45:06Z</time>
      </trkpt>
      <trkpt lat="44.82953" lon="4.67988">
        <ele>152.99</ele>
        <time>2022-04-24T06:45:20Z</time>
      </trkpt>
      <trkpt lat="44.82963" lon="4.68021">
        <ele>150.58</ele>
        <time>2022-04-24T06:45:37Z</time>
      </trkpt>
      <trkpt lat="44.82968" lon="4.68057">
        <ele>149.14</ele>
        <time>2022-04-24T06:45:55Z</time>
      </trkpt>
      <trkpt lat="44.82968" lon="4.68062">
        <ele>149.14</ele>
        <time>2022-04-24T06:45:58Z</time>
      </trkpt>
      <trkpt lat="44.8297" lon="4.68071">
        <ele>149.62</ele>
        <time>2022-04-24T06:46:03Z</time>
      </trkpt>
      <trkpt lat="44.82972" lon="4.68082">
        <ele>150.58</ele>
        <time>2022-04-24T06:46:17Z</time>
      </trkpt>
      <trkpt lat="44.82972" lon="4.68082">
        <ele>150.58</ele>
        <time>2022-04-24T06:46:18Z</time>
      </trkpt>
      <trkpt lat="44.82975" lon="4.68101">
        <ele>150.58</ele>
        <time>2022-04-24T06:46:33Z</time>
      </trkpt>
      <trkpt lat="44.82975" lon="4.68103">
        <ele>150.58</ele>
        <time>2022-04-24T06:46:35Z</time>
      </trkpt>
      <trkpt lat="44.82978" lon="4.68127">
        <ele>153.95</ele>
        <time>2022-04-24T06:46:52Z</time>
      </trkpt>
      <trkpt lat="44.82979" lon="4.68129">
        <ele>153.95</ele>
        <time>2022-04-24T06:46:54Z</time>
      </trkpt>
      <trkpt lat="44.82982" lon="4.68162">
        <ele>155.87</ele>
        <time>2022-04-24T06:47:12Z</time>
      </trkpt>
      <trkpt lat="44.82982" lon="4.68172">
        <ele>155.87</ele>
        <time>2022-04-24T06:47:18Z</time>
      </trkpt>
      <trkpt lat="44.82986" lon="4.68178">
        <ele>154.43</ele>
        <time>2022-04-24T06:47:34Z</time>
      </trkpt>
      <trkpt lat="44.82986" lon="4.68181">
        <ele>154.43</ele>
        <time>2022-04-24T06:47:51Z</time>
      </trkpt>
      <trkpt lat="44.82986" lon="4.68196">
        <ele>155.39</ele>
        <time>2022-04-24T06:48:02Z</time>
      </trkpt>
      <trkpt lat="44.82989" lon="4.682">
        <ele>154.91</ele>
        <time>2022-04-24T06:48:06Z</time>
      </trkpt>
      <trkpt lat="44.82996" lon="4.68219">
        <ele>156.83</ele>
        <time>2022-04-24T06:48:22Z</time>
      </trkpt>
      <trkpt lat="44.83003" lon="4.68225">
        <ele>160.2</ele>
        <time>2022-04-24T06:48:36Z</time>
      </trkpt>
      <trkpt lat="44.83008" lon="4.68231">
        <ele>167.41</ele>
        <time>2022-04-24T06:48:50Z</time>
      </trkpt>
      <trkpt lat="44.83017" lon="4.68227">
        <ele>171.25</ele>
        <time>2022-04-24T06:49:08Z</time>
      </trkpt>
      <trkpt lat="44.83025" lon="4.6823">
        <ele>173.17</ele>
        <time>2022-04-24T06:49:24Z</time>
      </trkpt>
      <trkpt lat="44.83032" lon="4.68234">
        <ele>176.54</ele>
        <time>2022-04-24T06:49:40Z</time>
      </trkpt>
      <trkpt lat="44.83038" lon="4.68238">
        <ele>180.87</ele>
        <time>2022-04-24T06:49:56Z</time>
      </trkpt>
      <trkpt lat="44.83042" lon="4.68234">
        <ele>185.19</ele>
        <time>2022-04-24T06:50:11Z</time>
      </trkpt>
      <trkpt lat="44.83047" lon="4.6824">
        <ele>186.15</ele>
        <time>2022-04-24T06:50:26Z</time>
      </trkpt>
      <trkpt lat="44.83049" lon="4.68244">
        <ele>188.08</ele>
        <time>2022-04-24T06:50:40Z</time>
      </trkpt>
      <trkpt lat="44.83053" lon="4.6825">
        <ele>190</ele>
        <time>2022-04-24T06:50:53Z</time>
      </trkpt>
      <trkpt lat="44.83059" lon="4.68256">
        <ele>193.84</ele>
        <time>2022-04-24T06:51:07Z</time>
      </trkpt>
      <trkpt lat="44.83067" lon="4.68262">
        <ele>197.21</ele>
        <time>2022-04-24T06:51:24Z</time>
      </trkpt>
      <trkpt lat="44.83075" lon="4.68262">
        <ele>201.05</ele>
        <time>2022-04-24T06:51:41Z</time>
      </trkpt>
      <trkpt lat="44.83078" lon="4.68263">
        <ele>203.46</ele>
        <time>2022-04-24T06:51:57Z</time>
      </trkpt>
      <trkpt lat="44.83081" lon="4.6827">
        <ele>206.82</ele>
        <time>2022-04-24T06:52:12Z</time>
      </trkpt>
      <trkpt lat="44.83085" lon="4.68276">
        <ele>210.19</ele>
        <time>2022-04-24T06:52:27Z</time>
      </trkpt>
      <trkpt lat="44.83092" lon="4.68274">
        <ele>210.19</ele>
        <time>2022-04-24T06:52:41Z</time>
      </trkpt>
      <trkpt lat="44.83096" lon="4.68276">
        <ele>212.11</ele>
        <time>2022-04-24T06:52:54Z</time>
      </trkpt>
      <trkpt lat="44.83098" lon="4.68281">
        <ele>214.03</ele>
        <time>2022-04-24T06:53:09Z</time>
      </trkpt>
      <trkpt lat="44.83104" lon="4.68284">
        <ele>215.95</ele>
        <time>2022-04-24T06:53:24Z</time>
      </trkpt>
      <trkpt lat="44.83106" lon="4.68291">
        <ele>215.95</ele>
        <time>2022-04-24T06:53:40Z</time>
      </trkpt>
      <trkpt lat="44.83111" lon="4.6829">
        <ele>221.72</ele>
        <time>2022-04-24T06:53:56Z</time>
      </trkpt>
      <trkpt lat="44.83116" lon="4.68287">
        <ele>223.64</ele>
        <time>2022-04-24T06:54:10Z</time>
      </trkpt>
      <trkpt lat="44.83117" lon="4.68294">
        <ele>225.09</ele>
        <time>2022-04-24T06:54:25Z</time>
      </trkpt>
      <trkpt lat="44.83124" lon="4.68301">
        <ele>226.53</ele>
        <time>2022-04-24T06:54:41Z</time>
      </trkpt>
      <trkpt lat="44.83126" lon="4.68309">
        <ele>230.85</ele>
        <time>2022-04-24T06:54:56Z</time>
      </trkpt>
      <trkpt lat="44.83127" lon="4.68316">
        <ele>235.66</ele>
        <time>2022-04-24T06:55:11Z</time>
      </trkpt>
      <trkpt lat="44.83133" lon="4.68326">
        <ele>237.1</ele>
        <time>2022-04-24T06:55:27Z</time>
      </trkpt>
      <trkpt lat="44.83134" lon="4.68332">
        <ele>241.43</ele>
        <time>2022-04-24T06:55:41Z</time>
      </trkpt>
      <trkpt lat="44.83141" lon="4.68335">
        <ele>245.27</ele>
        <time>2022-04-24T06:56:00Z</time>
      </trkpt>
      <trkpt lat="44.8315" lon="4.68325">
        <ele>247.2</ele>
        <time>2022-04-24T06:56:19Z</time>
      </trkpt>
      <trkpt lat="44.83159" lon="4.68319">
        <ele>248.16</ele>
        <time>2022-04-24T06:56:36Z</time>
      </trkpt>
      <trkpt lat="44.83168" lon="4.68326">
        <ele>252</ele>
        <time>2022-04-24T06:56:52Z</time>
      </trkpt>
      <trkpt lat="44.83172" lon="4.68334">
        <ele>255.37</ele>
        <time>2022-04-24T06:57:07Z</time>
      </trkpt>
      <trkpt lat="44.83179" lon="4.6835">
        <ele>258.25</ele>
        <time>2022-04-24T06:57:26Z</time>
      </trkpt>
      <trkpt lat="44.83187" lon="4.68361">
        <ele>260.65</ele>
        <time>2022-04-24T06:57:43Z</time>
      </trkpt>
      <trkpt lat="44.83193" lon="4.68374">
        <ele>262.58</ele>
        <time>2022-04-24T06:58:00Z</time>
      </trkpt>
      <trkpt lat="44.83202" lon="4.68384">
        <ele>266.42</ele>
        <time>2022-04-24T06:58:19Z</time>
      </trkpt>
      <trkpt lat="44.83209" lon="4.68391">
        <ele>269.79</ele>
        <time>2022-04-24T06:58:38Z</time>
      </trkpt>
      <trkpt lat="44.83216" lon="4.68403">
        <ele>273.15</ele>
        <time>2022-04-24T06:58:55Z</time>
      </trkpt>
      <trkpt lat="44.83222" lon="4.6842">
        <ele>277.96</ele>
        <time>2022-04-24T06:59:14Z</time>
      </trkpt>
      <trkpt lat="44.83233" lon="4.68435">
        <ele>277</ele>
        <time>2022-04-24T06:59:32Z</time>
      </trkpt>
      <trkpt lat="44.83241" lon="4.68447">
        <ele>278.44</ele>
        <time>2022-04-24T06:59:46Z</time>
      </trkpt>
      <trkpt lat="44.83251" lon="4.6846">
        <ele>281.32</ele>
        <time>2022-04-24T07:00:03Z</time>
      </trkpt>
      <trkpt lat="44.83264" lon="4.68473">
        <ele>284.21</ele>
        <time>2022-04-24T07:00:20Z</time>
      </trkpt>
      <trkpt lat="44.8327" lon="4.68491">
        <ele>284.21</ele>
        <time>2022-04-24T07:00:35Z</time>
      </trkpt>
      <trkpt lat="44.83272" lon="4.68496">
        <ele>284.21</ele>
        <time>2022-04-24T07:00:52Z</time>
      </trkpt>
      <trkpt lat="44.83272" lon="4.68499">
        <ele>283.73</ele>
        <time>2022-04-24T07:01:07Z</time>
      </trkpt>
      <trkpt lat="44.83269" lon="4.685">
        <ele>281.32</ele>
        <time>2022-04-24T07:01:18Z</time>
      </trkpt>
      <trkpt lat="44.83267" lon="4.685">
        <ele>280.84</ele>
        <time>2022-04-24T07:01:34Z</time>
      </trkpt>
      <trkpt lat="44.83268" lon="4.68503">
        <ele>281.8</ele>
        <time>2022-04-24T07:01:51Z</time>
      </trkpt>
      <trkpt lat="44.83268" lon="4.68504">
        <ele>281.8</ele>
        <time>2022-04-24T07:01:56Z</time>
      </trkpt>
      <trkpt lat="44.83262" lon="4.68515">
        <ele>281.8</ele>
        <time>2022-04-24T07:02:12Z</time>
      </trkpt>
      <trkpt lat="44.83262" lon="4.68513">
        <ele>281.32</ele>
        <time>2022-04-24T07:02:25Z</time>
      </trkpt>
      <trkpt lat="44.83261" lon="4.68515">
        <ele>281.32</ele>
        <time>2022-04-24T07:02:29Z</time>
      </trkpt>
      <trkpt lat="44.83249" lon="4.68532">
        <ele>283.73</ele>
        <time>2022-04-24T07:02:45Z</time>
      </trkpt>
      <trkpt lat="44.83239" lon="4.68546">
        <ele>286.13</ele>
        <time>2022-04-24T07:02:59Z</time>
      </trkpt>
      <trkpt lat="44.83231" lon="4.68572">
        <ele>288.53</ele>
        <time>2022-04-24T07:03:15Z</time>
      </trkpt>
      <trkpt lat="44.83219" lon="4.68595">
        <ele>289.97</ele>
        <time>2022-04-24T07:03:32Z</time>
      </trkpt>
      <trkpt lat="44.83218" lon="4.68598">
        <ele>289.49</ele>
        <time>2022-04-24T07:03:47Z</time>
      </trkpt>
      <trkpt lat="44.83216" lon="4.68599">
        <ele>290.46</ele>
        <time>2022-04-24T07:04:03Z</time>
      </trkpt>
      <trkpt lat="44.83213" lon="4.68609">
        <ele>289.97</ele>
        <time>2022-04-24T07:04:24Z</time>
      </trkpt>
      <trkpt lat="44.83204" lon="4.68628">
        <ele>290.46</ele>
        <time>2022-04-24T07:04:40Z</time>
      </trkpt>
      <trkpt lat="44.83202" lon="4.68636">
        <ele>289.97</ele>
        <time>2022-04-24T07:04:47Z</time>
      </trkpt>
      <trkpt lat="44.83198" lon="4.68662">
        <ele>291.42</ele>
        <time>2022-04-24T07:05:03Z</time>
      </trkpt>
      <trkpt lat="44.83193" lon="4.68695">
        <ele>291.9</ele>
        <time>2022-04-24T07:05:21Z</time>
      </trkpt>
      <trkpt lat="44.83185" lon="4.68723">
        <ele>296.7</ele>
        <time>2022-04-24T07:05:38Z</time>
      </trkpt>
      <trkpt lat="44.83181" lon="4.68734">
        <ele>298.15</ele>
        <time>2022-04-24T07:05:45Z</time>
      </trkpt>
      <trkpt lat="44.83177" lon="4.68753">
        <ele>298.63</ele>
        <time>2022-04-24T07:05:59Z</time>
      </trkpt>
      <trkpt lat="44.83174" lon="4.68759">
        <ele>300.55</ele>
        <time>2022-04-24T07:06:14Z</time>
      </trkpt>
      <trkpt lat="44.83173" lon="4.68779">
        <ele>300.55</ele>
        <time>2022-04-24T07:06:26Z</time>
      </trkpt>
      <trkpt lat="44.83182" lon="4.68806">
        <ele>300.07</ele>
        <time>2022-04-24T07:06:43Z</time>
      </trkpt>
      <trkpt lat="44.83204" lon="4.68815">
        <ele>300.55</ele>
        <time>2022-04-24T07:07:00Z</time>
      </trkpt>
      <trkpt lat="44.83226" lon="4.68804">
        <ele>302.95</ele>
        <time>2022-04-24T07:07:19Z</time>
      </trkpt>
      <trkpt lat="44.83247" lon="4.68809">
        <ele>306.8</ele>
        <time>2022-04-24T07:07:38Z</time>
      </trkpt>
      <trkpt lat="44.83261" lon="4.68824">
        <ele>308.72</ele>
        <time>2022-04-24T07:07:52Z</time>
      </trkpt>
      <trkpt lat="44.83283" lon="4.68842">
        <ele>310.64</ele>
        <time>2022-04-24T07:08:11Z</time>
      </trkpt>
      <trkpt lat="44.83291" lon="4.68844">
        <ele>310.64</ele>
        <time>2022-04-24T07:08:16Z</time>
      </trkpt>
      <trkpt lat="44.83315" lon="4.6885">
        <ele>312.09</ele>
        <time>2022-04-24T07:08:36Z</time>
      </trkpt>
      <trkpt lat="44.83334" lon="4.68849">
        <ele>319.3</ele>
        <time>2022-04-24T07:08:54Z</time>
      </trkpt>
      <trkpt lat="44.83357" lon="4.68842">
        <ele>326.02</ele>
        <time>2022-04-24T07:09:13Z</time>
      </trkpt>
      <trkpt lat="44.83381" lon="4.6883">
        <ele>328.91</ele>
        <time>2022-04-24T07:09:32Z</time>
      </trkpt>
      <trkpt lat="44.83401" lon="4.68825">
        <ele>332.75</ele>
        <time>2022-04-24T07:09:49Z</time>
      </trkpt>
      <trkpt lat="44.83422" lon="4.68823">
        <ele>339.96</ele>
        <time>2022-04-24T07:10:08Z</time>
      </trkpt>
      <trkpt lat="44.83448" lon="4.68789">
        <ele>337.08</ele>
        <time>2022-04-24T07:10:28Z</time>
      </trkpt>
      <trkpt lat="44.83475" lon="4.68767">
        <ele>335.64</ele>
        <time>2022-04-24T07:10:49Z</time>
      </trkpt>
      <trkpt lat="44.83489" lon="4.68747">
        <ele>339</ele>
        <time>2022-04-24T07:11:07Z</time>
      </trkpt>
      <trkpt lat="44.83514" lon="4.68716">
        <ele>336.12</ele>
        <time>2022-04-24T07:11:27Z</time>
      </trkpt>
      <trkpt lat="44.83523" lon="4.68685">
        <ele>337.08</ele>
        <time>2022-04-24T07:11:47Z</time>
      </trkpt>
      <trkpt lat="44.83538" lon="4.68665">
        <ele>338.52</ele>
        <time>2022-04-24T07:12:02Z</time>
      </trkpt>
      <trkpt lat="44.83557" lon="4.68667">
        <ele>347.17</ele>
        <time>2022-04-24T07:12:19Z</time>
      </trkpt>
      <trkpt lat="44.83571" lon="4.68676">
        <ele>361.11</ele>
        <time>2022-04-24T07:12:36Z</time>
      </trkpt>
      <trkpt lat="44.83591" lon="4.68692">
        <ele>368.8</ele>
        <time>2022-04-24T07:12:53Z</time>
      </trkpt>
      <trkpt lat="44.83607" lon="4.68688">
        <ele>377.94</ele>
        <time>2022-04-24T07:13:10Z</time>
      </trkpt>
      <trkpt lat="44.83606" lon="4.68694">
        <ele>380.34</ele>
        <time>2022-04-24T07:13:13Z</time>
      </trkpt>
      <trkpt lat="44.8362" lon="4.68705">
        <ele>368.8</ele>
        <time>2022-04-24T07:13:32Z</time>
      </trkpt>
      <trkpt lat="44.83618" lon="4.68716">
        <ele>371.69</ele>
        <time>2022-04-24T07:13:49Z</time>
      </trkpt>
      <trkpt lat="44.83638" lon="4.6874">
        <ele>365.92</ele>
        <time>2022-04-24T07:14:05Z</time>
      </trkpt>
      <trkpt lat="44.83666" lon="4.68765">
        <ele>355.34</ele>
        <time>2022-04-24T07:14:23Z</time>
      </trkpt>
      <trkpt lat="44.83672" lon="4.6877">
        <ele>356.31</ele>
        <time>2022-04-24T07:14:28Z</time>
      </trkpt>
      <trkpt lat="44.83699" lon="4.68779">
        <ele>351.98</ele>
        <time>2022-04-24T07:14:46Z</time>
      </trkpt>
      <trkpt lat="44.83723" lon="4.68796">
        <ele>358.23</ele>
        <time>2022-04-24T07:15:06Z</time>
      </trkpt>
      <trkpt lat="44.83735" lon="4.68819">
        <ele>367.84</ele>
        <time>2022-04-24T07:15:26Z</time>
      </trkpt>
      <trkpt lat="44.83746" lon="4.68841">
        <ele>377.45</ele>
        <time>2022-04-24T07:15:45Z</time>
      </trkpt>
      <trkpt lat="44.83756" lon="4.68862">
        <ele>373.13</ele>
        <time>2022-04-24T07:16:00Z</time>
      </trkpt>
      <trkpt lat="44.83757" lon="4.68893">
        <ele>385.15</ele>
        <time>2022-04-24T07:16:19Z</time>
      </trkpt>
      <trkpt lat="44.83759" lon="4.68935">
        <ele>386.11</ele>
        <time>2022-04-24T07:16:41Z</time>
      </trkpt>
      <trkpt lat="44.83761" lon="4.68938">
        <ele>384.66</ele>
        <time>2022-04-24T07:16:42Z</time>
      </trkpt>
      <trkpt lat="44.8378" lon="4.68977">
        <ele>356.31</ele>
        <time>2022-04-24T07:17:01Z</time>
      </trkpt>
      <trkpt lat="44.83788" lon="4.69">
        <ele>346.21</ele>
        <time>2022-04-24T07:17:18Z</time>
      </trkpt>
      <trkpt lat="44.83793" lon="4.69032">
        <ele>342.37</ele>
        <time>2022-04-24T07:17:34Z</time>
      </trkpt>
      <trkpt lat="44.83802" lon="4.69053">
        <ele>337.08</ele>
        <time>2022-04-24T07:17:52Z</time>
      </trkpt>
      <trkpt lat="44.83801" lon="4.69062">
        <ele>334.68</ele>
        <time>2022-04-24T07:18:13Z</time>
      </trkpt>
      <trkpt lat="44.83794" lon="4.69092">
        <ele>338.52</ele>
        <time>2022-04-24T07:18:33Z</time>
      </trkpt>
      <trkpt lat="44.83786" lon="4.69112">
        <ele>346.21</ele>
        <time>2022-04-24T07:18:50Z</time>
      </trkpt>
      <trkpt lat="44.83771" lon="4.69145">
        <ele>351.02</ele>
        <time>2022-04-24T07:19:08Z</time>
      </trkpt>
      <trkpt lat="44.83764" lon="4.69184">
        <ele>348.13</ele>
        <time>2022-04-24T07:19:26Z</time>
      </trkpt>
      <trkpt lat="44.83775" lon="4.69214">
        <ele>346.21</ele>
        <time>2022-04-24T07:19:42Z</time>
      </trkpt>
      <trkpt lat="44.83784" lon="4.6923">
        <ele>346.69</ele>
        <time>2022-04-24T07:19:52Z</time>
      </trkpt>
      <trkpt lat="44.83804" lon="4.69258">
        <ele>346.69</ele>
        <time>2022-04-24T07:20:14Z</time>
      </trkpt>
      <trkpt lat="44.83812" lon="4.6928">
        <ele>342.85</ele>
        <time>2022-04-24T07:20:28Z</time>
      </trkpt>
      <trkpt lat="44.83807" lon="4.69301">
        <ele>337.56</ele>
        <time>2022-04-24T07:20:46Z</time>
      </trkpt>
      <trkpt lat="44.83803" lon="4.69313">
        <ele>335.64</ele>
        <time>2022-04-24T07:21:00Z</time>
      </trkpt>
      <trkpt lat="44.83796" lon="4.69317">
        <ele>336.12</ele>
        <time>2022-04-24T07:21:14Z</time>
      </trkpt>
      <trkpt lat="44.83799" lon="4.69319">
        <ele>335.64</ele>
        <time>2022-04-24T07:21:25Z</time>
      </trkpt>
      <trkpt lat="44.83799" lon="4.6933">
        <ele>336.12</ele>
        <time>2022-04-24T07:21:40Z</time>
      </trkpt>
      <trkpt lat="44.83796" lon="4.69333">
        <ele>338.04</ele>
        <time>2022-04-24T07:21:56Z</time>
      </trkpt>
      <trkpt lat="44.83794" lon="4.69332">
        <ele>339.96</ele>
        <time>2022-04-24T07:22:15Z</time>
      </trkpt>
      <trkpt lat="44.83803" lon="4.69333">
        <ele>341.41</ele>
        <time>2022-04-24T07:22:28Z</time>
      </trkpt>
      <trkpt lat="44.83812" lon="4.69351">
        <ele>343.81</ele>
        <time>2022-04-24T07:22:48Z</time>
      </trkpt>
      <trkpt lat="44.83826" lon="4.69364">
        <ele>344.77</ele>
        <time>2022-04-24T07:23:09Z</time>
      </trkpt>
      <trkpt lat="44.83841" lon="4.69375">
        <ele>344.77</ele>
        <time>2022-04-24T07:23:28Z</time>
      </trkpt>
      <trkpt lat="44.83851" lon="4.69392">
        <ele>341.89</ele>
        <time>2022-04-24T07:23:48Z</time>
      </trkpt>
      <trkpt lat="44.8386" lon="4.69412">
        <ele>336.12</ele>
        <time>2022-04-24T07:24:10Z</time>
      </trkpt>
      <trkpt lat="44.83871" lon="4.69436">
        <ele>331.79</ele>
        <time>2022-04-24T07:24:31Z</time>
      </trkpt>
      <trkpt lat="44.8388" lon="4.69449">
        <ele>326.02</ele>
        <time>2022-04-24T07:24:50Z</time>
      </trkpt>
      <trkpt lat="44.83884" lon="4.69464">
        <ele>322.66</ele>
        <time>2022-04-24T07:25:06Z</time>
      </trkpt>
      <trkpt lat="44.83891" lon="4.69487">
        <ele>318.81</ele>
        <time>2022-04-24T07:25:26Z</time>
      </trkpt>
      <trkpt lat="44.83899" lon="4.69506">
        <ele>315.45</ele>
        <time>2022-04-24T07:25:44Z</time>
      </trkpt>
      <trkpt lat="44.83905" lon="4.69528">
        <ele>313.05</ele>
        <time>2022-04-24T07:26:02Z</time>
      </trkpt>
      <trkpt lat="44.83913" lon="4.69554">
        <ele>314.01</ele>
        <time>2022-04-24T07:26:22Z</time>
      </trkpt>
      <trkpt lat="44.83912" lon="4.69579">
        <ele>312.09</ele>
        <time>2022-04-24T07:26:40Z</time>
      </trkpt>
      <trkpt lat="44.83911" lon="4.69599">
        <ele>309.2</ele>
        <time>2022-04-24T07:26:58Z</time>
      </trkpt>
      <trkpt lat="44.83908" lon="4.69617">
        <ele>309.2</ele>
        <time>2022-04-24T07:27:20Z</time>
      </trkpt>
      <trkpt lat="44.83901" lon="4.69624">
        <ele>309.2</ele>
        <time>2022-04-24T07:27:37Z</time>
      </trkpt>
      <trkpt lat="44.83898" lon="4.69638">
        <ele>309.2</ele>
        <time>2022-04-24T07:27:55Z</time>
      </trkpt>
      <trkpt lat="44.83894" lon="4.69663">
        <ele>309.2</ele>
        <time>2022-04-24T07:28:13Z</time>
      </trkpt>
      <trkpt lat="44.83882" lon="4.6968">
        <ele>302.47</ele>
        <time>2022-04-24T07:28:30Z</time>
      </trkpt>
      <trkpt lat="44.83883" lon="4.69695">
        <ele>301.51</ele>
        <time>2022-04-24T07:28:46Z</time>
      </trkpt>
      <trkpt lat="44.83881" lon="4.69699">
        <ele>301.03</ele>
        <time>2022-04-24T07:29:05Z</time>
      </trkpt>
      <trkpt lat="44.83878" lon="4.69714">
        <ele>297.67</ele>
        <time>2022-04-24T07:29:21Z</time>
      </trkpt>
      <trkpt lat="44.83873" lon="4.69723">
        <ele>296.22</ele>
        <time>2022-04-24T07:29:38Z</time>
      </trkpt>
      <trkpt lat="44.83869" lon="4.69736">
        <ele>294.3</ele>
        <time>2022-04-24T07:29:55Z</time>
      </trkpt>
      <trkpt lat="44.8386" lon="4.69749">
        <ele>286.61</ele>
        <time>2022-04-24T07:30:14Z</time>
      </trkpt>
      <trkpt lat="44.83857" lon="4.69753">
        <ele>272.67</ele>
        <time>2022-04-24T07:30:32Z</time>
      </trkpt>
      <trkpt lat="44.83858" lon="4.6977">
        <ele>261.14</ele>
        <time>2022-04-24T07:30:49Z</time>
      </trkpt>
      <trkpt lat="44.83856" lon="4.69786">
        <ele>252.96</ele>
        <time>2022-04-24T07:31:09Z</time>
      </trkpt>
      <trkpt lat="44.83851" lon="4.69805">
        <ele>239.99</ele>
        <time>2022-04-24T07:31:29Z</time>
      </trkpt>
      <trkpt lat="44.83842" lon="4.69821">
        <ele>229.89</ele>
        <time>2022-04-24T07:31:47Z</time>
      </trkpt>
      <trkpt lat="44.83838" lon="4.69841">
        <ele>222.68</ele>
        <time>2022-04-24T07:32:07Z</time>
      </trkpt>
      <trkpt lat="44.83832" lon="4.69868">
        <ele>215.95</ele>
        <time>2022-04-24T07:32:26Z</time>
      </trkpt>
      <trkpt lat="44.83822" lon="4.69892">
        <ele>209.22</ele>
        <time>2022-04-24T07:32:47Z</time>
      </trkpt>
      <trkpt lat="44.83814" lon="4.69918">
        <ele>209.22</ele>
        <time>2022-04-24T07:33:09Z</time>
      </trkpt>
      <trkpt lat="44.83808" lon="4.69936">
        <ele>209.22</ele>
        <time>2022-04-24T07:33:27Z</time>
      </trkpt>
      <trkpt lat="44.83794" lon="4.69944">
        <ele>207.78</ele>
        <time>2022-04-24T07:33:45Z</time>
      </trkpt>
      <trkpt lat="44.83785" lon="4.6995">
        <ele>207.78</ele>
        <time>2022-04-24T07:34:03Z</time>
      </trkpt>
      <trkpt lat="44.83784" lon="4.69964">
        <ele>207.78</ele>
        <time>2022-04-24T07:34:20Z</time>
      </trkpt>
      <trkpt lat="44.83775" lon="4.6999">
        <ele>202.49</ele>
        <time>2022-04-24T07:34:40Z</time>
      </trkpt>
      <trkpt lat="44.83776" lon="4.70005">
        <ele>198.65</ele>
        <time>2022-04-24T07:34:52Z</time>
      </trkpt>
      <trkpt lat="44.83774" lon="4.70007">
        <ele>196.25</ele>
        <time>2022-04-24T07:35:03Z</time>
      </trkpt>
      <trkpt lat="44.83773" lon="4.70019">
        <ele>202.98</ele>
        <time>2022-04-24T07:35:19Z</time>
      </trkpt>
      <trkpt lat="44.83766" lon="4.70024">
        <ele>211.15</ele>
        <time>2022-04-24T07:35:37Z</time>
      </trkpt>
      <trkpt lat="44.83738" lon="4.7004">
        <ele>215.47</ele>
        <time>2022-04-24T07:35:53Z</time>
      </trkpt>
      <trkpt lat="44.83708" lon="4.70051">
        <ele>214.03</ele>
        <time>2022-04-24T07:36:11Z</time>
      </trkpt>
      <trkpt lat="44.83703" lon="4.70063">
        <ele>221.72</ele>
        <time>2022-04-24T07:36:25Z</time>
      </trkpt>
      <trkpt lat="44.8369" lon="4.70078">
        <ele>227.97</ele>
        <time>2022-04-24T07:36:40Z</time>
      </trkpt>
      <trkpt lat="44.83678" lon="4.70094">
        <ele>226.53</ele>
        <time>2022-04-24T07:36:56Z</time>
      </trkpt>
      <trkpt lat="44.83678" lon="4.70112">
        <ele>226.53</ele>
        <time>2022-04-24T07:37:11Z</time>
      </trkpt>
      <trkpt lat="44.83674" lon="4.70113">
        <ele>221.72</ele>
        <time>2022-04-24T07:37:26Z</time>
      </trkpt>
      <trkpt lat="44.83663" lon="4.70114">
        <ele>209.7</ele>
        <time>2022-04-24T07:37:40Z</time>
      </trkpt>
      <trkpt lat="44.83668" lon="4.70115">
        <ele>195.77</ele>
        <time>2022-04-24T07:37:59Z</time>
      </trkpt>
      <trkpt lat="44.83679" lon="4.7012">
        <ele>200.09</ele>
        <time>2022-04-24T07:38:17Z</time>
      </trkpt>
      <trkpt lat="44.83695" lon="4.70135">
        <ele>198.17</ele>
        <time>2022-04-24T07:38:33Z</time>
      </trkpt>
      <trkpt lat="44.83711" lon="4.70139">
        <ele>195.77</ele>
        <time>2022-04-24T07:38:48Z</time>
      </trkpt>
      <trkpt lat="44.8373" lon="4.70139">
        <ele>196.25</ele>
        <time>2022-04-24T07:39:05Z</time>
      </trkpt>
      <trkpt lat="44.83732" lon="4.70123">
        <ele>200.57</ele>
        <time>2022-04-24T07:39:23Z</time>
      </trkpt>
      <trkpt lat="44.83757" lon="4.70086">
        <ele>203.94</ele>
        <time>2022-04-24T07:39:42Z</time>
      </trkpt>
      <trkpt lat="44.83768" lon="4.7008">
        <ele>205.38</ele>
        <time>2022-04-24T07:39:52Z</time>
      </trkpt>
      <trkpt lat="44.83798" lon="4.70081">
        <ele>203.94</ele>
        <time>2022-04-24T07:40:13Z</time>
      </trkpt>
      <trkpt lat="44.83822" lon="4.70076">
        <ele>202.98</ele>
        <time>2022-04-24T07:40:34Z</time>
      </trkpt>
      <trkpt lat="44.83847" lon="4.70085">
        <ele>206.34</ele>
        <time>2022-04-24T07:40:53Z</time>
      </trkpt>
      <trkpt lat="44.83864" lon="4.70099">
        <ele>210.19</ele>
        <time>2022-04-24T07:41:09Z</time>
      </trkpt>
      <trkpt lat="44.83892" lon="4.70112">
        <ele>216.43</ele>
        <time>2022-04-24T07:41:28Z</time>
      </trkpt>
      <trkpt lat="44.8392" lon="4.70123">
        <ele>223.64</ele>
        <time>2022-04-24T07:41:45Z</time>
      </trkpt>
      <trkpt lat="44.83932" lon="4.70142">
        <ele>224.61</ele>
        <time>2022-04-24T07:41:53Z</time>
      </trkpt>
      <trkpt lat="44.83948" lon="4.70158">
        <ele>230.85</ele>
        <time>2022-04-24T07:42:11Z</time>
      </trkpt>
      <trkpt lat="44.83966" lon="4.70181">
        <ele>234.7</ele>
        <time>2022-04-24T07:42:31Z</time>
      </trkpt>
      <trkpt lat="44.83989" lon="4.70205">
        <ele>238.06</ele>
        <time>2022-04-24T07:42:51Z</time>
      </trkpt>
      <trkpt lat="44.84006" lon="4.7023">
        <ele>242.87</ele>
        <time>2022-04-24T07:43:09Z</time>
      </trkpt>
      <trkpt lat="44.84023" lon="4.70251">
        <ele>247.2</ele>
        <time>2022-04-24T07:43:29Z</time>
      </trkpt>
      <trkpt lat="44.8404" lon="4.70261">
        <ele>252</ele>
        <time>2022-04-24T07:43:46Z</time>
      </trkpt>
      <trkpt lat="44.84055" lon="4.70271">
        <ele>252.48</ele>
        <time>2022-04-24T07:44:05Z</time>
      </trkpt>
      <trkpt lat="44.84075" lon="4.70274">
        <ele>245.27</ele>
        <time>2022-04-24T07:44:20Z</time>
      </trkpt>
      <trkpt lat="44.84076" lon="4.70274">
        <ele>244.31</ele>
        <time>2022-04-24T07:44:21Z</time>
      </trkpt>
      <trkpt lat="44.84101" lon="4.70275">
        <ele>232.3</ele>
        <time>2022-04-24T07:44:42Z</time>
      </trkpt>
      <trkpt lat="44.8413" lon="4.70274">
        <ele>233.74</ele>
        <time>2022-04-24T07:45:04Z</time>
      </trkpt>
      <trkpt lat="44.84156" lon="4.7027">
        <ele>236.14</ele>
        <time>2022-04-24T07:45:25Z</time>
      </trkpt>
      <trkpt lat="44.84182" lon="4.70274">
        <ele>234.7</ele>
        <time>2022-04-24T07:45:43Z</time>
      </trkpt>
      <trkpt lat="44.8421" lon="4.70274">
        <ele>233.74</ele>
        <time>2022-04-24T07:46:03Z</time>
      </trkpt>
      <trkpt lat="44.84243" lon="4.70285">
        <ele>228.45</ele>
        <time>2022-04-24T07:46:22Z</time>
      </trkpt>
      <trkpt lat="44.8426" lon="4.70297">
        <ele>229.41</ele>
        <time>2022-04-24T07:46:32Z</time>
      </trkpt>
      <trkpt lat="44.84279" lon="4.70301">
        <ele>234.22</ele>
        <time>2022-04-24T07:46:51Z</time>
      </trkpt>
      <trkpt lat="44.84294" lon="4.70299">
        <ele>235.18</ele>
        <time>2022-04-24T07:47:02Z</time>
      </trkpt>
      <trkpt lat="44.84317" lon="4.70322">
        <ele>232.3</ele>
        <time>2022-04-24T07:47:19Z</time>
      </trkpt>
      <trkpt lat="44.8433" lon="4.70351">
        <ele>232.78</ele>
        <time>2022-04-24T07:47:37Z</time>
      </trkpt>
      <trkpt lat="44.84344" lon="4.70381">
        <ele>236.62</ele>
        <time>2022-04-24T07:47:58Z</time>
      </trkpt>
      <trkpt lat="44.84347" lon="4.70398">
        <ele>238.06</ele>
        <time>2022-04-24T07:48:16Z</time>
      </trkpt>
      <trkpt lat="44.8434" lon="4.7039">
        <ele>236.14</ele>
        <time>2022-04-24T07:48:34Z</time>
      </trkpt>
      <trkpt lat="44.84371" lon="4.70363">
        <ele>254.41</ele>
        <time>2022-04-24T07:48:52Z</time>
      </trkpt>
      <trkpt lat="44.84407" lon="4.70367">
        <ele>243.83</ele>
        <time>2022-04-24T07:49:05Z</time>
      </trkpt>
      <trkpt lat="44.84429" lon="4.70374">
        <ele>241.43</ele>
        <time>2022-04-24T07:49:25Z</time>
      </trkpt>
      <trkpt lat="44.84433" lon="4.70382">
        <ele>247.2</ele>
        <time>2022-04-24T07:49:42Z</time>
      </trkpt>
      <trkpt lat="44.84434" lon="4.70371">
        <ele>249.6</ele>
        <time>2022-04-24T07:50:03Z</time>
      </trkpt>
      <trkpt lat="44.84452" lon="4.70344">
        <ele>259.69</ele>
        <time>2022-04-24T07:50:26Z</time>
      </trkpt>
      <trkpt lat="44.84472" lon="4.70327">
        <ele>262.58</ele>
        <time>2022-04-24T07:50:45Z</time>
      </trkpt>
      <trkpt lat="44.84492" lon="4.7032">
        <ele>263.54</ele>
        <time>2022-04-24T07:51:05Z</time>
      </trkpt>
      <trkpt lat="44.84511" lon="4.70289">
        <ele>266.9</ele>
        <time>2022-04-24T07:51:25Z</time>
      </trkpt>
      <trkpt lat="44.8453" lon="4.70258">
        <ele>268.35</ele>
        <time>2022-04-24T07:51:44Z</time>
      </trkpt>
      <trkpt lat="44.84545" lon="4.70234">
        <ele>267.38</ele>
        <time>2022-04-24T07:52:02Z</time>
      </trkpt>
      <trkpt lat="44.84555" lon="4.70208">
        <ele>266.9</ele>
        <time>2022-04-24T07:52:22Z</time>
      </trkpt>
      <trkpt lat="44.84563" lon="4.70181">
        <ele>265.94</ele>
        <time>2022-04-24T07:52:39Z</time>
      </trkpt>
      <trkpt lat="44.84584" lon="4.70164">
        <ele>260.65</ele>
        <time>2022-04-24T07:52:57Z</time>
      </trkpt>
      <trkpt lat="44.84597" lon="4.70144">
        <ele>259.69</ele>
        <time>2022-04-24T07:53:14Z</time>
      </trkpt>
      <trkpt lat="44.84608" lon="4.70118">
        <ele>256.33</ele>
        <time>2022-04-24T07:53:32Z</time>
      </trkpt>
      <trkpt lat="44.84616" lon="4.7009">
        <ele>258.25</ele>
        <time>2022-04-24T07:53:53Z</time>
      </trkpt>
      <trkpt lat="44.84617" lon="4.70063">
        <ele>262.58</ele>
        <time>2022-04-24T07:54:13Z</time>
      </trkpt>
      <trkpt lat="44.84628" lon="4.70047">
        <ele>264.98</ele>
        <time>2022-04-24T07:54:30Z</time>
      </trkpt>
      <trkpt lat="44.8464" lon="4.70049">
        <ele>263.06</ele>
        <time>2022-04-24T07:54:51Z</time>
      </trkpt>
      <trkpt lat="44.84646" lon="4.70044">
        <ele>260.65</ele>
        <time>2022-04-24T07:55:10Z</time>
      </trkpt>
      <trkpt lat="44.84649" lon="4.70042">
        <ele>262.58</ele>
        <time>2022-04-24T07:55:39Z</time>
      </trkpt>
      <trkpt lat="44.84649" lon="4.70036">
        <ele>264.5</ele>
        <time>2022-04-24T07:56:03Z</time>
      </trkpt>
      <trkpt lat="44.84637" lon="4.70023">
        <ele>261.62</ele>
        <time>2022-04-24T07:56:26Z</time>
      </trkpt>
      <trkpt lat="44.84637" lon="4.70013">
        <ele>259.69</ele>
        <time>2022-04-24T07:56:51Z</time>
      </trkpt>
      <trkpt lat="44.84638" lon="4.70008">
        <ele>253.93</ele>
        <time>2022-04-24T07:57:05Z</time>
      </trkpt>
      <trkpt lat="44.84643" lon="4.70006">
        <ele>248.16</ele>
        <time>2022-04-24T07:57:16Z</time>
      </trkpt>
      <trkpt lat="44.84646" lon="4.70007">
        <ele>250.08</ele>
        <time>2022-04-24T07:57:29Z</time>
      </trkpt>
      <trkpt lat="44.84647" lon="4.70001">
        <ele>253.93</ele>
        <time>2022-04-24T07:57:41Z</time>
      </trkpt>
      <trkpt lat="44.84651" lon="4.69997">
        <ele>260.65</ele>
        <time>2022-04-24T07:57:56Z</time>
      </trkpt>
      <trkpt lat="44.84654" lon="4.69992">
        <ele>266.9</ele>
        <time>2022-04-24T07:58:10Z</time>
      </trkpt>
      <trkpt lat="44.84658" lon="4.69987">
        <ele>269.31</ele>
        <time>2022-04-24T07:58:35Z</time>
      </trkpt>
      <trkpt lat="44.84662" lon="4.69995">
        <ele>268.83</ele>
        <time>2022-04-24T07:58:50Z</time>
      </trkpt>
      <trkpt lat="44.84666" lon="4.70005">
        <ele>270.27</ele>
        <time>2022-04-24T07:59:06Z</time>
      </trkpt>
      <trkpt lat="44.84667" lon="4.70011">
        <ele>270.27</ele>
        <time>2022-04-24T07:59:18Z</time>
      </trkpt>
      <trkpt lat="44.8467" lon="4.70009">
        <ele>274.11</ele>
        <time>2022-04-24T07:59:33Z</time>
      </trkpt>
      <trkpt lat="44.84673" lon="4.70004">
        <ele>277.96</ele>
        <time>2022-04-24T07:59:45Z</time>
      </trkpt>
      <trkpt lat="44.84675" lon="4.69994">
        <ele>284.69</ele>
        <time>2022-04-24T08:00:01Z</time>
      </trkpt>
      <trkpt lat="44.84683" lon="4.69997">
        <ele>287.57</ele>
        <time>2022-04-24T08:00:16Z</time>
      </trkpt>
      <trkpt lat="44.84691" lon="4.70004">
        <ele>282.28</ele>
        <time>2022-04-24T08:00:29Z</time>
      </trkpt>
      <trkpt lat="44.84695" lon="4.70007">
        <ele>274.11</ele>
        <time>2022-04-24T08:00:42Z</time>
      </trkpt>
      <trkpt lat="44.84698" lon="4.70012">
        <ele>272.67</ele>
        <time>2022-04-24T08:00:57Z</time>
      </trkpt>
      <trkpt lat="44.84702" lon="4.70011">
        <ele>275.56</ele>
        <time>2022-04-24T08:01:13Z</time>
      </trkpt>
      <trkpt lat="44.84706" lon="4.70006">
        <ele>278.44</ele>
        <time>2022-04-24T08:01:26Z</time>
      </trkpt>
      <trkpt lat="44.84709" lon="4.69999">
        <ele>283.73</ele>
        <time>2022-04-24T08:01:39Z</time>
      </trkpt>
      <trkpt lat="44.84713" lon="4.69995">
        <ele>286.13</ele>
        <time>2022-04-24T08:01:51Z</time>
      </trkpt>
      <trkpt lat="44.84717" lon="4.69988">
        <ele>289.97</ele>
        <time>2022-04-24T08:02:05Z</time>
      </trkpt>
      <trkpt lat="44.84717" lon="4.69982">
        <ele>292.86</ele>
        <time>2022-04-24T08:02:17Z</time>
      </trkpt>
      <trkpt lat="44.84722" lon="4.69973">
        <ele>291.42</ele>
        <time>2022-04-24T08:02:30Z</time>
      </trkpt>
      <trkpt lat="44.84728" lon="4.69976">
        <ele>287.09</ele>
        <time>2022-04-24T08:02:45Z</time>
      </trkpt>
      <trkpt lat="44.84733" lon="4.69969">
        <ele>290.94</ele>
        <time>2022-04-24T08:03:00Z</time>
      </trkpt>
      <trkpt lat="44.8474" lon="4.69963">
        <ele>297.18</ele>
        <time>2022-04-24T08:03:14Z</time>
      </trkpt>
      <trkpt lat="44.84745" lon="4.69957">
        <ele>302.95</ele>
        <time>2022-04-24T08:03:29Z</time>
      </trkpt>
      <trkpt lat="44.84749" lon="4.69953">
        <ele>306.32</ele>
        <time>2022-04-24T08:03:42Z</time>
      </trkpt>
      <trkpt lat="44.84753" lon="4.6995">
        <ele>310.64</ele>
        <time>2022-04-24T08:03:56Z</time>
      </trkpt>
      <trkpt lat="44.8476" lon="4.69945">
        <ele>315.93</ele>
        <time>2022-04-24T08:04:10Z</time>
      </trkpt>
      <trkpt lat="44.84768" lon="4.69941">
        <ele>318.33</ele>
        <time>2022-04-24T08:04:26Z</time>
      </trkpt>
      <trkpt lat="44.84772" lon="4.69935">
        <ele>320.74</ele>
        <time>2022-04-24T08:04:39Z</time>
      </trkpt>
      <trkpt lat="44.8478" lon="4.69932">
        <ele>322.66</ele>
        <time>2022-04-24T08:04:53Z</time>
      </trkpt>
      <trkpt lat="44.84784" lon="4.6993">
        <ele>326.02</ele>
        <time>2022-04-24T08:05:06Z</time>
      </trkpt>
      <trkpt lat="44.84793" lon="4.69926">
        <ele>327.95</ele>
        <time>2022-04-24T08:05:22Z</time>
      </trkpt>
      <trkpt lat="44.84798" lon="4.69923">
        <ele>328.43</ele>
        <time>2022-04-24T08:05:36Z</time>
      </trkpt>
      <trkpt lat="44.84803" lon="4.69916">
        <ele>328.43</ele>
        <time>2022-04-24T08:05:49Z</time>
      </trkpt>
      <trkpt lat="44.84808" lon="4.69921">
        <ele>326.5</ele>
        <time>2022-04-24T08:06:04Z</time>
      </trkpt>
      <trkpt lat="44.84814" lon="4.6993">
        <ele>326.02</ele>
        <time>2022-04-24T08:06:20Z</time>
      </trkpt>
      <trkpt lat="44.84818" lon="4.69935">
        <ele>326.02</ele>
        <time>2022-04-24T08:06:33Z</time>
      </trkpt>
      <trkpt lat="44.84819" lon="4.6993">
        <ele>328.43</ele>
        <time>2022-04-24T08:06:48Z</time>
      </trkpt>
      <trkpt lat="44.84822" lon="4.6992">
        <ele>332.75</ele>
        <time>2022-04-24T08:07:03Z</time>
      </trkpt>
      <trkpt lat="44.84826" lon="4.69925">
        <ele>332.75</ele>
        <time>2022-04-24T08:07:16Z</time>
      </trkpt>
      <trkpt lat="44.84827" lon="4.69927">
        <ele>332.75</ele>
        <time>2022-04-24T08:07:31Z</time>
      </trkpt>
      <trkpt lat="44.84831" lon="4.69925">
        <ele>332.75</ele>
        <time>2022-04-24T08:07:52Z</time>
      </trkpt>
      <trkpt lat="44.84833" lon="4.69924">
        <ele>332.27</ele>
        <time>2022-04-24T08:08:11Z</time>
      </trkpt>
      <trkpt lat="44.84832" lon="4.69917">
        <ele>333.71</ele>
        <time>2022-04-24T08:08:23Z</time>
      </trkpt>
      <trkpt lat="44.84836" lon="4.69913">
        <ele>335.64</ele>
        <time>2022-04-24T08:08:38Z</time>
      </trkpt>
      <trkpt lat="44.84839" lon="4.69913">
        <ele>337.56</ele>
        <time>2022-04-24T08:08:53Z</time>
      </trkpt>
      <trkpt lat="44.84843" lon="4.69918">
        <ele>340.44</ele>
        <time>2022-04-24T08:09:08Z</time>
      </trkpt>
      <trkpt lat="44.8485" lon="4.69915">
        <ele>340.44</ele>
        <time>2022-04-24T08:09:25Z</time>
      </trkpt>
      <trkpt lat="44.8486" lon="4.69909">
        <ele>340.44</ele>
        <time>2022-04-24T08:09:41Z</time>
      </trkpt>
      <trkpt lat="44.84859" lon="4.69916">
        <ele>342.85</ele>
        <time>2022-04-24T08:09:58Z</time>
      </trkpt>
      <trkpt lat="44.84862" lon="4.69924">
        <ele>342.37</ele>
        <time>2022-04-24T08:10:12Z</time>
      </trkpt>
      <trkpt lat="44.84867" lon="4.69921">
        <ele>343.81</ele>
        <time>2022-04-24T08:10:27Z</time>
      </trkpt>
      <trkpt lat="44.84871" lon="4.69923">
        <ele>344.77</ele>
        <time>2022-04-24T08:10:41Z</time>
      </trkpt>
      <trkpt lat="44.84877" lon="4.6992">
        <ele>347.65</ele>
        <time>2022-04-24T08:10:59Z</time>
      </trkpt>
      <trkpt lat="44.84879" lon="4.69923">
        <ele>354.38</ele>
        <time>2022-04-24T08:11:16Z</time>
      </trkpt>
      <trkpt lat="44.8488" lon="4.69926">
        <ele>358.71</ele>
        <time>2022-04-24T08:11:30Z</time>
      </trkpt>
      <trkpt lat="44.84879" lon="4.69938">
        <ele>362.07</ele>
        <time>2022-04-24T08:11:49Z</time>
      </trkpt>
      <trkpt lat="44.84885" lon="4.69947">
        <ele>363.52</ele>
        <time>2022-04-24T08:12:02Z</time>
      </trkpt>
      <trkpt lat="44.84888" lon="4.69951">
        <ele>364.48</ele>
        <time>2022-04-24T08:12:15Z</time>
      </trkpt>
      <trkpt lat="44.84897" lon="4.69952">
        <ele>368.32</ele>
        <time>2022-04-24T08:12:32Z</time>
      </trkpt>
      <trkpt lat="44.84904" lon="4.69947">
        <ele>373.61</ele>
        <time>2022-04-24T08:12:47Z</time>
      </trkpt>
      <trkpt lat="44.84911" lon="4.69942">
        <ele>384.66</ele>
        <time>2022-04-24T08:13:04Z</time>
      </trkpt>
      <trkpt lat="44.84919" lon="4.69939">
        <ele>392.36</ele>
        <time>2022-04-24T08:13:17Z</time>
      </trkpt>
      <trkpt lat="44.84925" lon="4.69948">
        <ele>391.87</ele>
        <time>2022-04-24T08:13:31Z</time>
      </trkpt>
      <trkpt lat="44.84923" lon="4.69964">
        <ele>393.32</ele>
        <time>2022-04-24T08:13:47Z</time>
      </trkpt>
      <trkpt lat="44.84927" lon="4.69961">
        <ele>397.16</ele>
        <time>2022-04-24T08:14:01Z</time>
      </trkpt>
      <trkpt lat="44.84935" lon="4.69952">
        <ele>405.33</ele>
        <time>2022-04-24T08:14:18Z</time>
      </trkpt>
      <trkpt lat="44.84942" lon="4.69946">
        <ele>410.14</ele>
        <time>2022-04-24T08:14:31Z</time>
      </trkpt>
      <trkpt lat="44.84954" lon="4.69946">
        <ele>410.14</ele>
        <time>2022-04-24T08:14:46Z</time>
      </trkpt>
      <trkpt lat="44.84962" lon="4.69944">
        <ele>413.5</ele>
        <time>2022-04-24T08:15:00Z</time>
      </trkpt>
      <trkpt lat="44.84968" lon="4.69939">
        <ele>418.79</ele>
        <time>2022-04-24T08:15:14Z</time>
      </trkpt>
      <trkpt lat="44.84976" lon="4.69936">
        <ele>425.04</ele>
        <time>2022-04-24T08:15:30Z</time>
      </trkpt>
      <trkpt lat="44.84985" lon="4.69931">
        <ele>427.92</ele>
        <time>2022-04-24T08:15:46Z</time>
      </trkpt>
      <trkpt lat="44.84995" lon="4.69928">
        <ele>428.89</ele>
        <time>2022-04-24T08:16:01Z</time>
      </trkpt>
      <trkpt lat="44.85002" lon="4.69926">
        <ele>433.21</ele>
        <time>2022-04-24T08:16:17Z</time>
      </trkpt>
      <trkpt lat="44.85019" lon="4.69923">
        <ele>434.65</ele>
        <time>2022-04-24T08:16:47Z</time>
      </trkpt>
      <trkpt lat="44.85029" lon="4.69917">
        <ele>435.61</ele>
        <time>2022-04-24T08:17:03Z</time>
      </trkpt>
      <trkpt lat="44.85039" lon="4.69914">
        <ele>434.65</ele>
        <time>2022-04-24T08:17:18Z</time>
      </trkpt>
      <trkpt lat="44.85046" lon="4.69908">
        <ele>436.58</ele>
        <time>2022-04-24T08:17:35Z</time>
      </trkpt>
      <trkpt lat="44.85052" lon="4.69903">
        <ele>437.54</ele>
        <time>2022-04-24T08:17:49Z</time>
      </trkpt>
      <trkpt lat="44.85058" lon="4.69902">
        <ele>432.73</ele>
        <time>2022-04-24T08:18:03Z</time>
      </trkpt>
      <trkpt lat="44.85062" lon="4.69899">
        <ele>432.73</ele>
        <time>2022-04-24T08:18:18Z</time>
      </trkpt>
      <trkpt lat="44.85065" lon="4.69893">
        <ele>434.65</ele>
        <time>2022-04-24T08:18:31Z</time>
      </trkpt>
      <trkpt lat="44.85071" lon="4.69886">
        <ele>435.61</ele>
        <time>2022-04-24T08:18:44Z</time>
      </trkpt>
      <trkpt lat="44.85076" lon="4.69869">
        <ele>438.98</ele>
        <time>2022-04-24T08:19:03Z</time>
      </trkpt>
      <trkpt lat="44.8508" lon="4.69854">
        <ele>440.9</ele>
        <time>2022-04-24T08:19:20Z</time>
      </trkpt>
      <trkpt lat="44.85086" lon="4.69834">
        <ele>442.34</ele>
        <time>2022-04-24T08:19:38Z</time>
      </trkpt>
      <trkpt lat="44.85095" lon="4.69822">
        <ele>442.34</ele>
        <time>2022-04-24T08:19:54Z</time>
      </trkpt>
      <trkpt lat="44.85103" lon="4.6981">
        <ele>442.34</ele>
        <time>2022-04-24T08:20:07Z</time>
      </trkpt>
      <trkpt lat="44.85114" lon="4.69802">
        <ele>446.19</ele>
        <time>2022-04-24T08:20:22Z</time>
      </trkpt>
      <trkpt lat="44.85126" lon="4.698">
        <ele>447.63</ele>
        <time>2022-04-24T08:20:37Z</time>
      </trkpt>
      <trkpt lat="44.85137" lon="4.69796">
        <ele>450.52</ele>
        <time>2022-04-24T08:20:52Z</time>
      </trkpt>
      <trkpt lat="44.85145" lon="4.69795">
        <ele>451.96</ele>
        <time>2022-04-24T08:21:05Z</time>
      </trkpt>
      <trkpt lat="44.85145" lon="4.69807">
        <ele>453.4</ele>
        <time>2022-04-24T08:21:18Z</time>
      </trkpt>
      <trkpt lat="44.85143" lon="4.69811">
        <ele>452.92</ele>
        <time>2022-04-24T08:21:22Z</time>
      </trkpt>
      <trkpt lat="44.85138" lon="4.69829">
        <ele>455.32</ele>
        <time>2022-04-24T08:21:38Z</time>
      </trkpt>
      <trkpt lat="44.85135" lon="4.6984">
        <ele>458.69</ele>
        <time>2022-04-24T08:21:54Z</time>
      </trkpt>
      <trkpt lat="44.85131" lon="4.69848">
        <ele>459.17</ele>
        <time>2022-04-24T08:22:03Z</time>
      </trkpt>
      <trkpt lat="44.8513" lon="4.69853">
        <ele>459.65</ele>
        <time>2022-04-24T08:22:06Z</time>
      </trkpt>
      <trkpt lat="44.85124" lon="4.69869">
        <ele>461.09</ele>
        <time>2022-04-24T08:22:17Z</time>
      </trkpt>
      <trkpt lat="44.85117" lon="4.69894">
        <ele>460.61</ele>
        <time>2022-04-24T08:22:33Z</time>
      </trkpt>
      <trkpt lat="44.85113" lon="4.69913">
        <ele>463.01</ele>
        <time>2022-04-24T08:22:46Z</time>
      </trkpt>
      <trkpt lat="44.85107" lon="4.69936">
        <ele>465.42</ele>
        <time>2022-04-24T08:23:01Z</time>
      </trkpt>
      <trkpt lat="44.85105" lon="4.69944">
        <ele>465.9</ele>
        <time>2022-04-24T08:23:06Z</time>
      </trkpt>
      <trkpt lat="44.85101" lon="4.69965">
        <ele>468.3</ele>
        <time>2022-04-24T08:23:21Z</time>
      </trkpt>
      <trkpt lat="44.85102" lon="4.69973">
        <ele>465.9</ele>
        <time>2022-04-24T08:23:34Z</time>
      </trkpt>
      <trkpt lat="44.85101" lon="4.69976">
        <ele>463.49</ele>
        <time>2022-04-24T08:23:51Z</time>
      </trkpt>
      <trkpt lat="44.85102" lon="4.69977">
        <ele>463.49</ele>
        <time>2022-04-24T08:23:52Z</time>
      </trkpt>
      <trkpt lat="44.85112" lon="4.69997">
        <ele>463.49</ele>
        <time>2022-04-24T08:24:09Z</time>
      </trkpt>
      <trkpt lat="44.85123" lon="4.70019">
        <ele>463.97</ele>
        <time>2022-04-24T08:24:24Z</time>
      </trkpt>
      <trkpt lat="44.85124" lon="4.70034">
        <ele>465.9</ele>
        <time>2022-04-24T08:24:41Z</time>
      </trkpt>
      <trkpt lat="44.85127" lon="4.70035">
        <ele>463.97</ele>
        <time>2022-04-24T08:24:52Z</time>
      </trkpt>
      <trkpt lat="44.85129" lon="4.7003">
        <ele>463.01</ele>
        <time>2022-04-24T08:24:57Z</time>
      </trkpt>
      <trkpt lat="44.85128" lon="4.70023">
        <ele>462.53</ele>
        <time>2022-04-24T08:25:02Z</time>
      </trkpt>
      <trkpt lat="44.85114" lon="4.70003">
        <ele>466.86</ele>
        <time>2022-04-24T08:25:21Z</time>
      </trkpt>
      <trkpt lat="44.85111" lon="4.69994">
        <ele>466.86</ele>
        <time>2022-04-24T08:25:27Z</time>
      </trkpt>
      <trkpt lat="44.85107" lon="4.69976">
        <ele>467.82</ele>
        <time>2022-04-24T08:25:38Z</time>
      </trkpt>
      <trkpt lat="44.8511" lon="4.69958">
        <ele>470.22</ele>
        <time>2022-04-24T08:25:54Z</time>
      </trkpt>
      <trkpt lat="44.85119" lon="4.69937">
        <ele>473.11</ele>
        <time>2022-04-24T08:26:09Z</time>
      </trkpt>
      <trkpt lat="44.85125" lon="4.69917">
        <ele>474.55</ele>
        <time>2022-04-24T08:26:23Z</time>
      </trkpt>
      <trkpt lat="44.85131" lon="4.69906">
        <ele>475.99</ele>
        <time>2022-04-24T08:26:31Z</time>
      </trkpt>
      <trkpt lat="44.85142" lon="4.69887">
        <ele>471.66</ele>
        <time>2022-04-24T08:26:44Z</time>
      </trkpt>
      <trkpt lat="44.85146" lon="4.69878">
        <ele>469.74</ele>
        <time>2022-04-24T08:26:57Z</time>
      </trkpt>
      <trkpt lat="44.85159" lon="4.69865">
        <ele>470.22</ele>
        <time>2022-04-24T08:27:12Z</time>
      </trkpt>
      <trkpt lat="44.85164" lon="4.69857">
        <ele>471.18</ele>
        <time>2022-04-24T08:27:26Z</time>
      </trkpt>
      <trkpt lat="44.85165" lon="4.69855">
        <ele>472.63</ele>
        <time>2022-04-24T08:27:43Z</time>
      </trkpt>
      <trkpt lat="44.85164" lon="4.69858">
        <ele>473.11</ele>
        <time>2022-04-24T08:28:03Z</time>
      </trkpt>
      <trkpt lat="44.85163" lon="4.69855">
        <ele>473.59</ele>
        <time>2022-04-24T08:28:22Z</time>
      </trkpt>
      <trkpt lat="44.85166" lon="4.69851">
        <ele>474.55</ele>
        <time>2022-04-24T08:28:35Z</time>
      </trkpt>
      <trkpt lat="44.85175" lon="4.69843">
        <ele>476.95</ele>
        <time>2022-04-24T08:28:47Z</time>
      </trkpt>
      <trkpt lat="44.85185" lon="4.69841">
        <ele>477.43</ele>
        <time>2022-04-24T08:28:57Z</time>
      </trkpt>
      <trkpt lat="44.852" lon="4.69834">
        <ele>477.91</ele>
        <time>2022-04-24T08:29:12Z</time>
      </trkpt>
      <trkpt lat="44.85216" lon="4.69822">
        <ele>477.43</ele>
        <time>2022-04-24T08:29:27Z</time>
      </trkpt>
      <trkpt lat="44.85225" lon="4.69811">
        <ele>477.91</ele>
        <time>2022-04-24T08:29:42Z</time>
      </trkpt>
      <trkpt lat="44.85234" lon="4.69796">
        <ele>482.24</ele>
        <time>2022-04-24T08:29:56Z</time>
      </trkpt>
      <trkpt lat="44.85241" lon="4.69785">
        <ele>485.12</ele>
        <time>2022-04-24T08:30:06Z</time>
      </trkpt>
      <trkpt lat="44.85242" lon="4.69762">
        <ele>494.74</ele>
        <time>2022-04-24T08:30:22Z</time>
      </trkpt>
      <trkpt lat="44.8524" lon="4.69744">
        <ele>498.58</ele>
        <time>2022-04-24T08:30:35Z</time>
      </trkpt>
      <trkpt lat="44.8524" lon="4.69727">
        <ele>499.54</ele>
        <time>2022-04-24T08:30:47Z</time>
      </trkpt>
      <trkpt lat="44.85236" lon="4.69709">
        <ele>506.27</ele>
        <time>2022-04-24T08:31:01Z</time>
      </trkpt>
      <trkpt lat="44.85233" lon="4.6969">
        <ele>514.44</ele>
        <time>2022-04-24T08:31:15Z</time>
      </trkpt>
      <trkpt lat="44.85236" lon="4.69665">
        <ele>521.17</ele>
        <time>2022-04-24T08:31:29Z</time>
      </trkpt>
      <trkpt lat="44.8524" lon="4.69646">
        <ele>527.9</ele>
        <time>2022-04-24T08:31:42Z</time>
      </trkpt>
      <trkpt lat="44.85244" lon="4.69627">
        <ele>533.67</ele>
        <time>2022-04-24T08:31:54Z</time>
      </trkpt>
      <trkpt lat="44.85246" lon="4.69615">
        <ele>534.15</ele>
        <time>2022-04-24T08:31:59Z</time>
      </trkpt>
      <trkpt lat="44.85248" lon="4.69578">
        <ele>526.46</ele>
        <time>2022-04-24T08:32:11Z</time>
      </trkpt>
      <trkpt lat="44.85258" lon="4.69562">
        <ele>512.04</ele>
        <time>2022-04-24T08:32:15Z</time>
      </trkpt>
      <trkpt lat="44.85263" lon="4.69555">
        <ele>502.43</ele>
        <time>2022-04-24T08:32:29Z</time>
      </trkpt>
      <trkpt lat="44.85274" lon="4.69536">
        <ele>500.5</ele>
        <time>2022-04-24T08:32:43Z</time>
      </trkpt>
      <trkpt lat="44.85286" lon="4.69519">
        <ele>500.5</ele>
        <time>2022-04-24T08:32:56Z</time>
      </trkpt>
      <trkpt lat="44.85305" lon="4.69507">
        <ele>500.98</ele>
        <time>2022-04-24T08:33:11Z</time>
      </trkpt>
      <trkpt lat="44.8531" lon="4.69505">
        <ele>501.95</ele>
        <time>2022-04-24T08:33:15Z</time>
      </trkpt>
      <trkpt lat="44.85334" lon="4.69494">
        <ele>502.91</ele>
        <time>2022-04-24T08:33:34Z</time>
      </trkpt>
      <trkpt lat="44.85355" lon="4.69489">
        <ele>502.91</ele>
        <time>2022-04-24T08:33:49Z</time>
      </trkpt>
      <trkpt lat="44.85366" lon="4.69488">
        <ele>500.98</ele>
        <time>2022-04-24T08:34:02Z</time>
      </trkpt>
      <trkpt lat="44.85371" lon="4.69486">
        <ele>498.58</ele>
        <time>2022-04-24T08:34:09Z</time>
      </trkpt>
      <trkpt lat="44.85386" lon="4.69482">
        <ele>504.35</ele>
        <time>2022-04-24T08:34:25Z</time>
      </trkpt>
      <trkpt lat="44.85399" lon="4.69486">
        <ele>507.71</ele>
        <time>2022-04-24T08:34:39Z</time>
      </trkpt>
      <trkpt lat="44.85417" lon="4.69502">
        <ele>506.27</ele>
        <time>2022-04-24T08:34:56Z</time>
      </trkpt>
      <trkpt lat="44.85422" lon="4.69506">
        <ele>505.79</ele>
        <time>2022-04-24T08:35:07Z</time>
      </trkpt>
      <trkpt lat="44.85434" lon="4.69514">
        <ele>506.75</ele>
        <time>2022-04-24T08:35:23Z</time>
      </trkpt>
      <trkpt lat="44.85446" lon="4.69522">
        <ele>505.31</ele>
        <time>2022-04-24T08:35:36Z</time>
      </trkpt>
      <trkpt lat="44.8546" lon="4.69526">
        <ele>509.16</ele>
        <time>2022-04-24T08:35:53Z</time>
      </trkpt>
      <trkpt lat="44.85472" lon="4.69532">
        <ele>516.85</ele>
        <time>2022-04-24T08:36:08Z</time>
      </trkpt>
      <trkpt lat="44.85488" lon="4.69535">
        <ele>521.65</ele>
        <time>2022-04-24T08:36:24Z</time>
      </trkpt>
      <trkpt lat="44.855" lon="4.6954">
        <ele>521.65</ele>
        <time>2022-04-24T08:36:38Z</time>
      </trkpt>
      <trkpt lat="44.85507" lon="4.69546">
        <ele>522.13</ele>
        <time>2022-04-24T08:36:51Z</time>
      </trkpt>
      <trkpt lat="44.8551" lon="4.69549">
        <ele>522.13</ele>
        <time>2022-04-24T08:36:54Z</time>
      </trkpt>
      <trkpt lat="44.85512" lon="4.69555">
        <ele>521.65</ele>
        <time>2022-04-24T08:36:57Z</time>
      </trkpt>
      <trkpt lat="44.85508" lon="4.69566">
        <ele>522.13</ele>
        <time>2022-04-24T08:37:11Z</time>
      </trkpt>
      <trkpt lat="44.85498" lon="4.69567">
        <ele>525.5</ele>
        <time>2022-04-24T08:37:26Z</time>
      </trkpt>
      <trkpt lat="44.85487" lon="4.69572">
        <ele>530.79</ele>
        <time>2022-04-24T08:37:40Z</time>
      </trkpt>
      <trkpt lat="44.85474" lon="4.69576">
        <ele>537.99</ele>
        <time>2022-04-24T08:37:53Z</time>
      </trkpt>
      <trkpt lat="44.85455" lon="4.69576">
        <ele>541.36</ele>
        <time>2022-04-24T08:38:05Z</time>
      </trkpt>
      <trkpt lat="44.85433" lon="4.69582">
        <ele>544.72</ele>
        <time>2022-04-24T08:38:21Z</time>
      </trkpt>
      <trkpt lat="44.85415" lon="4.6959">
        <ele>547.61</ele>
        <time>2022-04-24T08:38:34Z</time>
      </trkpt>
      <trkpt lat="44.85413" lon="4.69591">
        <ele>548.09</ele>
        <time>2022-04-24T08:38:36Z</time>
      </trkpt>
      <trkpt lat="44.85395" lon="4.69601">
        <ele>549.53</ele>
        <time>2022-04-24T08:38:49Z</time>
      </trkpt>
      <trkpt lat="44.85389" lon="4.69611">
        <ele>551.93</ele>
        <time>2022-04-24T08:38:59Z</time>
      </trkpt>
      <trkpt lat="44.85381" lon="4.6963">
        <ele>557.22</ele>
        <time>2022-04-24T08:39:14Z</time>
      </trkpt>
      <trkpt lat="44.85374" lon="4.69642">
        <ele>559.62</ele>
        <time>2022-04-24T08:39:24Z</time>
      </trkpt>
      <trkpt lat="44.85368" lon="4.69658">
        <ele>556.74</ele>
        <time>2022-04-24T08:39:37Z</time>
      </trkpt>
      <trkpt lat="44.85364" lon="4.6968">
        <ele>556.26</ele>
        <time>2022-04-24T08:39:51Z</time>
      </trkpt>
      <trkpt lat="44.85346" lon="4.69711">
        <ele>548.09</ele>
        <time>2022-04-24T08:40:03Z</time>
      </trkpt>
      <trkpt lat="44.8534" lon="4.69729">
        <ele>548.57</ele>
        <time>2022-04-24T08:40:17Z</time>
      </trkpt>
      <trkpt lat="44.8534" lon="4.69751">
        <ele>552.41</ele>
        <time>2022-04-24T08:40:30Z</time>
      </trkpt>
      <trkpt lat="44.85339" lon="4.69759">
        <ele>553.38</ele>
        <time>2022-04-24T08:40:34Z</time>
      </trkpt>
      <trkpt lat="44.85341" lon="4.69798">
        <ele>554.82</ele>
        <time>2022-04-24T08:40:49Z</time>
      </trkpt>
      <trkpt lat="44.85349" lon="4.69821">
        <ele>553.86</ele>
        <time>2022-04-24T08:41:03Z</time>
      </trkpt>
      <trkpt lat="44.85357" lon="4.69853">
        <ele>553.86</ele>
        <time>2022-04-24T08:41:20Z</time>
      </trkpt>
      <trkpt lat="44.85371" lon="4.69874">
        <ele>540.88</ele>
        <time>2022-04-24T08:41:36Z</time>
      </trkpt>
      <trkpt lat="44.85369" lon="4.69876">
        <ele>539.44</ele>
        <time>2022-04-24T08:41:53Z</time>
      </trkpt>
      <trkpt lat="44.85371" lon="4.69877">
        <ele>537.51</ele>
        <time>2022-04-24T08:42:11Z</time>
      </trkpt>
      <trkpt lat="44.85384" lon="4.69894">
        <ele>539.92</ele>
        <time>2022-04-24T08:42:26Z</time>
      </trkpt>
      <trkpt lat="44.85389" lon="4.69898">
        <ele>541.36</ele>
        <time>2022-04-24T08:42:31Z</time>
      </trkpt>
      <trkpt lat="44.85399" lon="4.69903">
        <ele>543.28</ele>
        <time>2022-04-24T08:42:44Z</time>
      </trkpt>
      <trkpt lat="44.85416" lon="4.69903">
        <ele>547.61</ele>
        <time>2022-04-24T08:43:00Z</time>
      </trkpt>
      <trkpt lat="44.85433" lon="4.699">
        <ele>552.41</ele>
        <time>2022-04-24T08:43:16Z</time>
      </trkpt>
      <trkpt lat="44.85455" lon="4.69899">
        <ele>554.82</ele>
        <time>2022-04-24T08:43:31Z</time>
      </trkpt>
      <trkpt lat="44.85478" lon="4.699">
        <ele>555.3</ele>
        <time>2022-04-24T08:43:48Z</time>
      </trkpt>
      <trkpt lat="44.85496" lon="4.699">
        <ele>557.22</ele>
        <time>2022-04-24T08:44:03Z</time>
      </trkpt>
      <trkpt lat="44.85516" lon="4.69908">
        <ele>562.51</ele>
        <time>2022-04-24T08:44:19Z</time>
      </trkpt>
      <trkpt lat="44.8553" lon="4.69928">
        <ele>571.16</ele>
        <time>2022-04-24T08:44:35Z</time>
      </trkpt>
      <trkpt lat="44.85539" lon="4.69937">
        <ele>576.93</ele>
        <time>2022-04-24T08:44:44Z</time>
      </trkpt>
      <trkpt lat="44.8556" lon="4.69942">
        <ele>578.85</ele>
        <time>2022-04-24T08:45:00Z</time>
      </trkpt>
      <trkpt lat="44.85579" lon="4.69936">
        <ele>578.37</ele>
        <time>2022-04-24T08:45:17Z</time>
      </trkpt>
      <trkpt lat="44.85593" lon="4.69928">
        <ele>584.14</ele>
        <time>2022-04-24T08:45:34Z</time>
      </trkpt>
      <trkpt lat="44.85598" lon="4.69918">
        <ele>588.46</ele>
        <time>2022-04-24T08:45:42Z</time>
      </trkpt>
      <trkpt lat="44.85608" lon="4.69901">
        <ele>594.23</ele>
        <time>2022-04-24T08:45:57Z</time>
      </trkpt>
      <trkpt lat="44.85622" lon="4.69875">
        <ele>592.31</ele>
        <time>2022-04-24T08:46:13Z</time>
      </trkpt>
      <trkpt lat="44.85633" lon="4.69855">
        <ele>589.43</ele>
        <time>2022-04-24T08:46:25Z</time>
      </trkpt>
      <trkpt lat="44.8565" lon="4.69826">
        <ele>583.18</ele>
        <time>2022-04-24T08:46:43Z</time>
      </trkpt>
      <trkpt lat="44.85655" lon="4.69817">
        <ele>580.77</ele>
        <time>2022-04-24T08:46:49Z</time>
      </trkpt>
      <trkpt lat="44.85665" lon="4.69793">
        <ele>583.66</ele>
        <time>2022-04-24T08:47:07Z</time>
      </trkpt>
      <trkpt lat="44.85668" lon="4.69766">
        <ele>588.46</ele>
        <time>2022-04-24T08:47:24Z</time>
      </trkpt>
      <trkpt lat="44.8567" lon="4.69733">
        <ele>588.95</ele>
        <time>2022-04-24T08:47:40Z</time>
      </trkpt>
      <trkpt lat="44.85672" lon="4.69723">
        <ele>589.43</ele>
        <time>2022-04-24T08:47:46Z</time>
      </trkpt>
      <trkpt lat="44.85687" lon="4.69698">
        <ele>595.67</ele>
        <time>2022-04-24T08:48:02Z</time>
      </trkpt>
      <trkpt lat="44.85705" lon="4.69671">
        <ele>597.6</ele>
        <time>2022-04-24T08:48:19Z</time>
      </trkpt>
      <trkpt lat="44.85718" lon="4.69648">
        <ele>596.64</ele>
        <time>2022-04-24T08:48:36Z</time>
      </trkpt>
      <trkpt lat="44.85738" lon="4.69622">
        <ele>598.56</ele>
        <time>2022-04-24T08:48:54Z</time>
      </trkpt>
      <trkpt lat="44.85755" lon="4.69599">
        <ele>597.12</ele>
        <time>2022-04-24T08:49:12Z</time>
      </trkpt>
      <trkpt lat="44.85757" lon="4.69596">
        <ele>596.15</ele>
        <time>2022-04-24T08:49:15Z</time>
      </trkpt>
      <trkpt lat="44.85759" lon="4.69588">
        <ele>595.67</ele>
        <time>2022-04-24T08:49:19Z</time>
      </trkpt>
      <trkpt lat="44.8576" lon="4.69559">
        <ele>585.58</ele>
        <time>2022-04-24T08:49:36Z</time>
      </trkpt>
      <trkpt lat="44.8576" lon="4.69543">
        <ele>584.62</ele>
        <time>2022-04-24T08:49:46Z</time>
      </trkpt>
      <trkpt lat="44.8576" lon="4.69531">
        <ele>584.62</ele>
        <time>2022-04-24T08:49:58Z</time>
      </trkpt>
      <trkpt lat="44.85763" lon="4.6952">
        <ele>585.58</ele>
        <time>2022-04-24T08:50:09Z</time>
      </trkpt>
      <trkpt lat="44.85772" lon="4.69499">
        <ele>587.5</ele>
        <time>2022-04-24T08:50:25Z</time>
      </trkpt>
      <trkpt lat="44.85783" lon="4.69485">
        <ele>587.5</ele>
        <time>2022-04-24T08:50:41Z</time>
      </trkpt>
      <trkpt lat="44.85797" lon="4.69471">
        <ele>588.46</ele>
        <time>2022-04-24T08:50:57Z</time>
      </trkpt>
      <trkpt lat="44.85803" lon="4.69474">
        <ele>587.5</ele>
        <time>2022-04-24T08:51:05Z</time>
      </trkpt>
      <trkpt lat="44.85805" lon="4.69486">
        <ele>591.83</ele>
        <time>2022-04-24T08:51:19Z</time>
      </trkpt>
      <trkpt lat="44.85806" lon="4.695">
        <ele>596.15</ele>
        <time>2022-04-24T08:51:31Z</time>
      </trkpt>
      <trkpt lat="44.85812" lon="4.69513">
        <ele>597.12</ele>
        <time>2022-04-24T08:51:45Z</time>
      </trkpt>
      <trkpt lat="44.85825" lon="4.69512">
        <ele>599.04</ele>
        <time>2022-04-24T08:52:00Z</time>
      </trkpt>
      <trkpt lat="44.85837" lon="4.69507">
        <ele>602.4</ele>
        <time>2022-04-24T08:52:15Z</time>
      </trkpt>
      <trkpt lat="44.85848" lon="4.69502">
        <ele>607.21</ele>
        <time>2022-04-24T08:52:29Z</time>
      </trkpt>
      <trkpt lat="44.85852" lon="4.69493">
        <ele>616.82</ele>
        <time>2022-04-24T08:52:43Z</time>
      </trkpt>
      <trkpt lat="44.85858" lon="4.69479">
        <ele>623.55</ele>
        <time>2022-04-24T08:52:59Z</time>
      </trkpt>
      <trkpt lat="44.85862" lon="4.69468">
        <ele>621.15</ele>
        <time>2022-04-24T08:53:19Z</time>
      </trkpt>
      <trkpt lat="44.85866" lon="4.69461">
        <ele>617.78</ele>
        <time>2022-04-24T08:53:33Z</time>
      </trkpt>
      <trkpt lat="44.85875" lon="4.69452">
        <ele>618.75</ele>
        <time>2022-04-24T08:53:50Z</time>
      </trkpt>
      <trkpt lat="44.85882" lon="4.69447">
        <ele>623.07</ele>
        <time>2022-04-24T08:54:04Z</time>
      </trkpt>
      <trkpt lat="44.85884" lon="4.69439">
        <ele>625.47</ele>
        <time>2022-04-24T08:54:09Z</time>
      </trkpt>
      <trkpt lat="44.85888" lon="4.69429">
        <ele>625.47</ele>
        <time>2022-04-24T08:54:13Z</time>
      </trkpt>
      <trkpt lat="44.85889" lon="4.69422">
        <ele>624.03</ele>
        <time>2022-04-24T08:54:17Z</time>
      </trkpt>
      <trkpt lat="44.85894" lon="4.69416">
        <ele>620.19</ele>
        <time>2022-04-24T08:54:22Z</time>
      </trkpt>
      <trkpt lat="44.85901" lon="4.69401">
        <ele>621.15</ele>
        <time>2022-04-24T08:54:35Z</time>
      </trkpt>
      <trkpt lat="44.85908" lon="4.69389">
        <ele>627.88</ele>
        <time>2022-04-24T08:54:49Z</time>
      </trkpt>
      <trkpt lat="44.85916" lon="4.69375">
        <ele>634.13</ele>
        <time>2022-04-24T08:55:03Z</time>
      </trkpt>
      <trkpt lat="44.85924" lon="4.69357">
        <ele>643.74</ele>
        <time>2022-04-24T08:55:18Z</time>
      </trkpt>
      <trkpt lat="44.8593" lon="4.69341">
        <ele>649.03</ele>
        <time>2022-04-24T08:55:31Z</time>
      </trkpt>
      <trkpt lat="44.8594" lon="4.69322">
        <ele>651.43</ele>
        <time>2022-04-24T08:55:46Z</time>
      </trkpt>
      <trkpt lat="44.85951" lon="4.69299">
        <ele>649.99</ele>
        <time>2022-04-24T08:56:02Z</time>
      </trkpt>
      <trkpt lat="44.85959" lon="4.69282">
        <ele>654.8</ele>
        <time>2022-04-24T08:56:16Z</time>
      </trkpt>
      <trkpt lat="44.85969" lon="4.69261">
        <ele>657.68</ele>
        <time>2022-04-24T08:56:32Z</time>
      </trkpt>
      <trkpt lat="44.85979" lon="4.69239">
        <ele>661.04</ele>
        <time>2022-04-24T08:56:50Z</time>
      </trkpt>
      <trkpt lat="44.85987" lon="4.69224">
        <ele>666.33</ele>
        <time>2022-04-24T08:57:06Z</time>
      </trkpt>
      <trkpt lat="44.85992" lon="4.6921">
        <ele>657.68</ele>
        <time>2022-04-24T08:57:18Z</time>
      </trkpt>
      <trkpt lat="44.85995" lon="4.6919">
        <ele>667.29</ele>
        <time>2022-04-24T08:57:34Z</time>
      </trkpt>
      <trkpt lat="44.85996" lon="4.69175">
        <ele>674.02</ele>
        <time>2022-04-24T08:57:44Z</time>
      </trkpt>
      <trkpt lat="44.85999" lon="4.69152">
        <ele>682.19</ele>
        <time>2022-04-24T08:58:00Z</time>
      </trkpt>
      <trkpt lat="44.86002" lon="4.6913">
        <ele>688.92</ele>
        <time>2022-04-24T08:58:16Z</time>
      </trkpt>
      <trkpt lat="44.86005" lon="4.69112">
        <ele>687.96</ele>
        <time>2022-04-24T08:58:28Z</time>
      </trkpt>
      <trkpt lat="44.86005" lon="4.69103">
        <ele>689.4</ele>
        <time>2022-04-24T08:58:38Z</time>
      </trkpt>
      <trkpt lat="44.86012" lon="4.69084">
        <ele>672.58</ele>
        <time>2022-04-24T08:58:52Z</time>
      </trkpt>
      <trkpt lat="44.86014" lon="4.69081">
        <ele>664.89</ele>
        <time>2022-04-24T08:59:04Z</time>
      </trkpt>
      <trkpt lat="44.86016" lon="4.69062">
        <ele>669.22</ele>
        <time>2022-04-24T08:59:22Z</time>
      </trkpt>
      <trkpt lat="44.86019" lon="4.69049">
        <ele>674.02</ele>
        <time>2022-04-24T08:59:36Z</time>
      </trkpt>
      <trkpt lat="44.86023" lon="4.69033">
        <ele>680.75</ele>
        <time>2022-04-24T08:59:52Z</time>
      </trkpt>
      <trkpt lat="44.86023" lon="4.69021">
        <ele>687.48</ele>
        <time>2022-04-24T09:00:05Z</time>
      </trkpt>
      <trkpt lat="44.86019" lon="4.69008">
        <ele>698.53</ele>
        <time>2022-04-24T09:00:19Z</time>
      </trkpt>
      <trkpt lat="44.86016" lon="4.68994">
        <ele>711.99</ele>
        <time>2022-04-24T09:00:34Z</time>
      </trkpt>
      <trkpt lat="44.86011" lon="4.68976">
        <ele>719.68</ele>
        <time>2022-04-24T09:00:47Z</time>
      </trkpt>
      <trkpt lat="44.8601" lon="4.68966">
        <ele>724.49</ele>
        <time>2022-04-24T09:00:59Z</time>
      </trkpt>
      <trkpt lat="44.86007" lon="4.68951">
        <ele>730.26</ele>
        <time>2022-04-24T09:01:13Z</time>
      </trkpt>
      <trkpt lat="44.86003" lon="4.68944">
        <ele>739.87</ele>
        <time>2022-04-24T09:01:28Z</time>
      </trkpt>
      <trkpt lat="44.85999" lon="4.68927">
        <ele>748.04</ele>
        <time>2022-04-24T09:01:42Z</time>
      </trkpt>
      <trkpt lat="44.85993" lon="4.68918">
        <ele>757.66</ele>
        <time>2022-04-24T09:01:55Z</time>
      </trkpt>
      <trkpt lat="44.85987" lon="4.68907">
        <ele>765.83</ele>
        <time>2022-04-24T09:02:09Z</time>
      </trkpt>
      <trkpt lat="44.85986" lon="4.68887">
        <ele>765.35</ele>
        <time>2022-04-24T09:02:22Z</time>
      </trkpt>
      <trkpt lat="44.85985" lon="4.68868">
        <ele>767.27</ele>
        <time>2022-04-24T09:02:37Z</time>
      </trkpt>
      <trkpt lat="44.85982" lon="4.68842">
        <ele>767.27</ele>
        <time>2022-04-24T09:02:51Z</time>
      </trkpt>
      <trkpt lat="44.85982" lon="4.68814">
        <ele>768.71</ele>
        <time>2022-04-24T09:03:05Z</time>
      </trkpt>
      <trkpt lat="44.8599" lon="4.68791">
        <ele>765.83</ele>
        <time>2022-04-24T09:03:17Z</time>
      </trkpt>
      <trkpt lat="44.85993" lon="4.68786">
        <ele>766.31</ele>
        <time>2022-04-24T09:03:22Z</time>
      </trkpt>
      <trkpt lat="44.86021" lon="4.68767">
        <ele>739.39</ele>
        <time>2022-04-24T09:03:36Z</time>
      </trkpt>
      <trkpt lat="44.86033" lon="4.68757">
        <ele>717.76</ele>
        <time>2022-04-24T09:03:49Z</time>
      </trkpt>
      <trkpt lat="44.86041" lon="4.68754">
        <ele>700.94</ele>
        <time>2022-04-24T09:04:00Z</time>
      </trkpt>
      <trkpt lat="44.86042" lon="4.68753">
        <ele>697.57</ele>
        <time>2022-04-24T09:04:13Z</time>
      </trkpt>
      <trkpt lat="44.86045" lon="4.68751">
        <ele>693.25</ele>
        <time>2022-04-24T09:04:26Z</time>
      </trkpt>
      <trkpt lat="44.86061" lon="4.68755">
        <ele>689.4</ele>
        <time>2022-04-24T09:04:42Z</time>
      </trkpt>
      <trkpt lat="44.86064" lon="4.68757">
        <ele>688.92</ele>
        <time>2022-04-24T09:04:52Z</time>
      </trkpt>
      <trkpt lat="44.86081" lon="4.68765">
        <ele>688.44</ele>
        <time>2022-04-24T09:05:11Z</time>
      </trkpt>
      <trkpt lat="44.86088" lon="4.6877">
        <ele>687</ele>
        <time>2022-04-24T09:05:22Z</time>
      </trkpt>
      <trkpt lat="44.86106" lon="4.6878">
        <ele>687</ele>
        <time>2022-04-24T09:05:39Z</time>
      </trkpt>
      <trkpt lat="44.86134" lon="4.68787">
        <ele>687.48</ele>
        <time>2022-04-24T09:06:01Z</time>
      </trkpt>
      <trkpt lat="44.8616" lon="4.68793">
        <ele>689.4</ele>
        <time>2022-04-24T09:06:21Z</time>
      </trkpt>
      <trkpt lat="44.86187" lon="4.68782">
        <ele>691.33</ele>
        <time>2022-04-24T09:06:40Z</time>
      </trkpt>
      <trkpt lat="44.86219" lon="4.68773">
        <ele>692.77</ele>
        <time>2022-04-24T09:07:04Z</time>
      </trkpt>
      <trkpt lat="44.86247" lon="4.68764">
        <ele>692.77</ele>
        <time>2022-04-24T09:07:23Z</time>
      </trkpt>
      <trkpt lat="44.86283" lon="4.68757">
        <ele>690.84</ele>
        <time>2022-04-24T09:07:46Z</time>
      </trkpt>
      <trkpt lat="44.86312" lon="4.68758">
        <ele>690.36</ele>
        <time>2022-04-24T09:08:07Z</time>
      </trkpt>
      <trkpt lat="44.86347" lon="4.68759">
        <ele>684.12</ele>
        <time>2022-04-24T09:08:31Z</time>
      </trkpt>
      <trkpt lat="44.86354" lon="4.68734">
        <ele>691.33</ele>
        <time>2022-04-24T09:08:50Z</time>
      </trkpt>
      <trkpt lat="44.86364" lon="4.68693">
        <ele>695.65</ele>
        <time>2022-04-24T09:09:12Z</time>
      </trkpt>
      <trkpt lat="44.86367" lon="4.68654">
        <ele>704.3</ele>
        <time>2022-04-24T09:09:34Z</time>
      </trkpt>
      <trkpt lat="44.8637" lon="4.68611">
        <ele>702.86</ele>
        <time>2022-04-24T09:09:57Z</time>
      </trkpt>
      <trkpt lat="44.86377" lon="4.68582">
        <ele>698.53</ele>
        <time>2022-04-24T09:10:13Z</time>
      </trkpt>
      <trkpt lat="44.8638" lon="4.68543">
        <ele>698.05</ele>
        <time>2022-04-24T09:10:34Z</time>
      </trkpt>
      <trkpt lat="44.86376" lon="4.68494">
        <ele>698.53</ele>
        <time>2022-04-24T09:10:59Z</time>
      </trkpt>
      <trkpt lat="44.86383" lon="4.68455">
        <ele>696.13</ele>
        <time>2022-04-24T09:11:18Z</time>
      </trkpt>
      <trkpt lat="44.86386" lon="4.68448">
        <ele>694.69</ele>
        <time>2022-04-24T09:11:22Z</time>
      </trkpt>
      <trkpt lat="44.86409" lon="4.68407">
        <ele>687</ele>
        <time>2022-04-24T09:11:46Z</time>
      </trkpt>
      <trkpt lat="44.86405" lon="4.68369">
        <ele>687</ele>
        <time>2022-04-24T09:12:06Z</time>
      </trkpt>
      <trkpt lat="44.864" lon="4.68329">
        <ele>683.63</ele>
        <time>2022-04-24T09:12:26Z</time>
      </trkpt>
      <trkpt lat="44.8639" lon="4.68292">
        <ele>667.77</ele>
        <time>2022-04-24T09:12:48Z</time>
      </trkpt>
      <trkpt lat="44.86381" lon="4.68276">
        <ele>663.93</ele>
        <time>2022-04-24T09:13:02Z</time>
      </trkpt>
      <trkpt lat="44.8636" lon="4.68238">
        <ele>660.56</ele>
        <time>2022-04-24T09:13:26Z</time>
      </trkpt>
      <trkpt lat="44.86343" lon="4.68217">
        <ele>659.12</ele>
        <time>2022-04-24T09:13:47Z</time>
      </trkpt>
      <trkpt lat="44.86322" lon="4.68195">
        <ele>658.16</ele>
        <time>2022-04-24T09:14:06Z</time>
      </trkpt>
      <trkpt lat="44.86301" lon="4.68172">
        <ele>655.28</ele>
        <time>2022-04-24T09:14:25Z</time>
      </trkpt>
      <trkpt lat="44.86282" lon="4.68134">
        <ele>653.83</ele>
        <time>2022-04-24T09:14:48Z</time>
      </trkpt>
      <trkpt lat="44.86271" lon="4.68099">
        <ele>654.8</ele>
        <time>2022-04-24T09:15:09Z</time>
      </trkpt>
      <trkpt lat="44.86272" lon="4.68092">
        <ele>654.8</ele>
        <time>2022-04-24T09:15:13Z</time>
      </trkpt>
      <trkpt lat="44.86291" lon="4.68068">
        <ele>656.24</ele>
        <time>2022-04-24T09:15:31Z</time>
      </trkpt>
      <trkpt lat="44.86294" lon="4.68062">
        <ele>655.76</ele>
        <time>2022-04-24T09:15:34Z</time>
      </trkpt>
      <trkpt lat="44.86288" lon="4.68027">
        <ele>652.87</ele>
        <time>2022-04-24T09:15:52Z</time>
      </trkpt>
      <trkpt lat="44.86259" lon="4.67995">
        <ele>649.03</ele>
        <time>2022-04-24T09:16:16Z</time>
      </trkpt>
      <trkpt lat="44.86232" lon="4.67992">
        <ele>645.66</ele>
        <time>2022-04-24T09:16:34Z</time>
      </trkpt>
      <trkpt lat="44.86208" lon="4.67963">
        <ele>642.78</ele>
        <time>2022-04-24T09:16:56Z</time>
      </trkpt>
      <trkpt lat="44.86178" lon="4.67934">
        <ele>638.45</ele>
        <time>2022-04-24T09:17:22Z</time>
      </trkpt>
      <trkpt lat="44.86144" lon="4.67913">
        <ele>638.45</ele>
        <time>2022-04-24T09:17:48Z</time>
      </trkpt>
      <trkpt lat="44.86107" lon="4.67882">
        <ele>639.89</ele>
        <time>2022-04-24T09:18:16Z</time>
      </trkpt>
      <trkpt lat="44.86073" lon="4.6786">
        <ele>639.89</ele>
        <time>2022-04-24T09:18:39Z</time>
      </trkpt>
      <trkpt lat="44.86041" lon="4.67848">
        <ele>635.57</ele>
        <time>2022-04-24T09:19:01Z</time>
      </trkpt>
      <trkpt lat="44.86011" lon="4.67834">
        <ele>633.17</ele>
        <time>2022-04-24T09:19:22Z</time>
      </trkpt>
      <trkpt lat="44.85979" lon="4.67828">
        <ele>626.92</ele>
        <time>2022-04-24T09:19:48Z</time>
      </trkpt>
      <trkpt lat="44.8595" lon="4.67826">
        <ele>623.07</ele>
        <time>2022-04-24T09:20:07Z</time>
      </trkpt>
      <trkpt lat="44.85913" lon="4.67818">
        <ele>619.71</ele>
        <time>2022-04-24T09:20:31Z</time>
      </trkpt>
      <trkpt lat="44.8588" lon="4.67809">
        <ele>620.19</ele>
        <time>2022-04-24T09:20:55Z</time>
      </trkpt>
      <trkpt lat="44.85845" lon="4.6781">
        <ele>613.94</ele>
        <time>2022-04-24T09:21:20Z</time>
      </trkpt>
      <trkpt lat="44.85814" lon="4.6781">
        <ele>612.98</ele>
        <time>2022-04-24T09:21:43Z</time>
      </trkpt>
      <trkpt lat="44.85785" lon="4.67808">
        <ele>610.57</ele>
        <time>2022-04-24T09:22:05Z</time>
      </trkpt>
      <trkpt lat="44.85752" lon="4.6781">
        <ele>607.21</ele>
        <time>2022-04-24T09:22:27Z</time>
      </trkpt>
      <trkpt lat="44.85715" lon="4.67813">
        <ele>603.36</ele>
        <time>2022-04-24T09:22:49Z</time>
      </trkpt>
      <trkpt lat="44.85686" lon="4.67808">
        <ele>595.67</ele>
        <time>2022-04-24T09:23:08Z</time>
      </trkpt>
      <trkpt lat="44.85659" lon="4.67801">
        <ele>586.54</ele>
        <time>2022-04-24T09:23:30Z</time>
      </trkpt>
      <trkpt lat="44.85631" lon="4.67798">
        <ele>578.85</ele>
        <time>2022-04-24T09:23:51Z</time>
      </trkpt>
      <trkpt lat="44.85615" lon="4.67797">
        <ele>575.01</ele>
        <time>2022-04-24T09:24:08Z</time>
      </trkpt>
      <trkpt lat="44.85585" lon="4.67808">
        <ele>575.97</ele>
        <time>2022-04-24T09:24:30Z</time>
      </trkpt>
      <trkpt lat="44.85559" lon="4.6782">
        <ele>575.97</ele>
        <time>2022-04-24T09:24:49Z</time>
      </trkpt>
      <trkpt lat="44.85529" lon="4.6783">
        <ele>574.04</ele>
        <time>2022-04-24T09:25:09Z</time>
      </trkpt>
      <trkpt lat="44.85493" lon="4.67828">
        <ele>570.68</ele>
        <time>2022-04-24T09:25:31Z</time>
      </trkpt>
      <trkpt lat="44.85469" lon="4.67814">
        <ele>569.24</ele>
        <time>2022-04-24T09:25:49Z</time>
      </trkpt>
      <trkpt lat="44.85439" lon="4.67792">
        <ele>565.87</ele>
        <time>2022-04-24T09:26:13Z</time>
      </trkpt>
      <trkpt lat="44.8541" lon="4.67793">
        <ele>568.28</ele>
        <time>2022-04-24T09:26:37Z</time>
      </trkpt>
      <trkpt lat="44.85395" lon="4.67794">
        <ele>566.35</ele>
        <time>2022-04-24T09:26:57Z</time>
      </trkpt>
      <trkpt lat="44.85382" lon="4.67804">
        <ele>567.8</ele>
        <time>2022-04-24T09:27:18Z</time>
      </trkpt>
      <trkpt lat="44.85373" lon="4.67808">
        <ele>570.2</ele>
        <time>2022-04-24T09:27:38Z</time>
      </trkpt>
      <trkpt lat="44.85348" lon="4.6781">
        <ele>570.2</ele>
        <time>2022-04-24T09:27:59Z</time>
      </trkpt>
      <trkpt lat="44.85343" lon="4.67811">
        <ele>569.24</ele>
        <time>2022-04-24T09:28:14Z</time>
      </trkpt>
      <trkpt lat="44.85338" lon="4.67808">
        <ele>567.8</ele>
        <time>2022-04-24T09:28:24Z</time>
      </trkpt>
      <trkpt lat="44.85308" lon="4.6779">
        <ele>567.8</ele>
        <time>2022-04-24T09:28:49Z</time>
      </trkpt>
      <trkpt lat="44.85277" lon="4.67778">
        <ele>568.28</ele>
        <time>2022-04-24T09:29:12Z</time>
      </trkpt>
      <trkpt lat="44.85243" lon="4.67783">
        <ele>565.39</ele>
        <time>2022-04-24T09:29:35Z</time>
      </trkpt>
      <trkpt lat="44.85223" lon="4.67796">
        <ele>564.91</ele>
        <time>2022-04-24T09:29:52Z</time>
      </trkpt>
      <trkpt lat="44.85215" lon="4.67811">
        <ele>564.91</ele>
        <time>2022-04-24T09:30:07Z</time>
      </trkpt>
      <trkpt lat="44.85212" lon="4.67804">
        <ele>565.39</ele>
        <time>2022-04-24T09:30:24Z</time>
      </trkpt>
      <trkpt lat="44.85208" lon="4.67807">
        <ele>569.24</ele>
        <time>2022-04-24T09:30:43Z</time>
      </trkpt>
      <trkpt lat="44.85197" lon="4.67811">
        <ele>573.08</ele>
        <time>2022-04-24T09:31:06Z</time>
      </trkpt>
      <trkpt lat="44.85195" lon="4.67812">
        <ele>573.08</ele>
        <time>2022-04-24T09:31:08Z</time>
      </trkpt>
      <trkpt lat="44.85161" lon="4.67817">
        <ele>574.04</ele>
        <time>2022-04-24T09:31:33Z</time>
      </trkpt>
      <trkpt lat="44.8513" lon="4.67817">
        <ele>579.33</ele>
        <time>2022-04-24T09:31:55Z</time>
      </trkpt>
      <trkpt lat="44.85099" lon="4.67823">
        <ele>580.77</ele>
        <time>2022-04-24T09:32:17Z</time>
      </trkpt>
      <trkpt lat="44.85071" lon="4.67822">
        <ele>580.77</ele>
        <time>2022-04-24T09:32:40Z</time>
      </trkpt>
      <trkpt lat="44.85069" lon="4.67833">
        <ele>581.73</ele>
        <time>2022-04-24T09:32:52Z</time>
      </trkpt>
      <trkpt lat="44.85064" lon="4.67848">
        <ele>581.73</ele>
        <time>2022-04-24T09:33:08Z</time>
      </trkpt>
      <trkpt lat="44.85057" lon="4.67849">
        <ele>582.22</ele>
        <time>2022-04-24T09:33:21Z</time>
      </trkpt>
      <trkpt lat="44.85061" lon="4.67862">
        <ele>582.22</ele>
        <time>2022-04-24T09:33:39Z</time>
      </trkpt>
      <trkpt lat="44.85062" lon="4.67867">
        <ele>581.73</ele>
        <time>2022-04-24T09:33:55Z</time>
      </trkpt>
      <trkpt lat="44.85062" lon="4.67869">
        <ele>582.7</ele>
        <time>2022-04-24T09:34:28Z</time>
      </trkpt>
      <trkpt lat="44.85061" lon="4.67867">
        <ele>580.77</ele>
        <time>2022-04-24T09:34:48Z</time>
      </trkpt>
      <trkpt lat="44.85053" lon="4.67868">
        <ele>579.33</ele>
        <time>2022-04-24T09:35:04Z</time>
      </trkpt>
      <trkpt lat="44.85053" lon="4.6787">
        <ele>581.73</ele>
        <time>2022-04-24T09:35:24Z</time>
      </trkpt>
      <trkpt lat="44.8505" lon="4.67873">
        <ele>580.29</ele>
        <time>2022-04-24T09:35:45Z</time>
      </trkpt>
      <trkpt lat="44.85046" lon="4.67876">
        <ele>580.29</ele>
        <time>2022-04-24T09:35:56Z</time>
      </trkpt>
      <trkpt lat="44.85045" lon="4.67878">
        <ele>581.25</ele>
        <time>2022-04-24T09:36:16Z</time>
      </trkpt>
      <trkpt lat="44.85044" lon="4.6788">
        <ele>581.25</ele>
        <time>2022-04-24T09:36:21Z</time>
      </trkpt>
      <trkpt lat="44.85038" lon="4.67889">
        <ele>581.25</ele>
        <time>2022-04-24T09:36:37Z</time>
      </trkpt>
      <trkpt lat="44.85037" lon="4.6789">
        <ele>581.25</ele>
        <time>2022-04-24T09:36:38Z</time>
      </trkpt>
      <trkpt lat="44.85035" lon="4.67896">
        <ele>580.77</ele>
        <time>2022-04-24T09:36:48Z</time>
      </trkpt>
      <trkpt lat="44.8503" lon="4.67898">
        <ele>581.25</ele>
        <time>2022-04-24T09:37:02Z</time>
      </trkpt>
      <trkpt lat="44.85023" lon="4.6791">
        <ele>582.7</ele>
        <time>2022-04-24T09:37:16Z</time>
      </trkpt>
      <trkpt lat="44.85018" lon="4.67922">
        <ele>582.7</ele>
        <time>2022-04-24T09:37:25Z</time>
      </trkpt>
      <trkpt lat="44.85018" lon="4.67925">
        <ele>583.18</ele>
        <time>2022-04-24T09:37:27Z</time>
      </trkpt>
      <trkpt lat="44.85009" lon="4.67941">
        <ele>582.7</ele>
        <time>2022-04-24T09:37:39Z</time>
      </trkpt>
      <trkpt lat="44.85007" lon="4.67943">
        <ele>582.22</ele>
        <time>2022-04-24T09:37:41Z</time>
      </trkpt>
      <trkpt lat="44.85001" lon="4.67953">
        <ele>580.29</ele>
        <time>2022-04-24T09:37:51Z</time>
      </trkpt>
      <trkpt lat="44.84998" lon="4.6796">
        <ele>579.81</ele>
        <time>2022-04-24T09:37:57Z</time>
      </trkpt>
      <trkpt lat="44.84995" lon="4.67967">
        <ele>580.29</ele>
        <time>2022-04-24T09:38:01Z</time>
      </trkpt>
      <trkpt lat="44.84995" lon="4.67994">
        <ele>579.81</ele>
        <time>2022-04-24T09:38:15Z</time>
      </trkpt>
      <trkpt lat="44.84992" lon="4.68016">
        <ele>580.29</ele>
        <time>2022-04-24T09:38:28Z</time>
      </trkpt>
      <trkpt lat="44.84982" lon="4.68046">
        <ele>578.85</ele>
        <time>2022-04-24T09:38:45Z</time>
      </trkpt>
      <trkpt lat="44.84982" lon="4.68047">
        <ele>578.85</ele>
        <time>2022-04-24T09:38:46Z</time>
      </trkpt>
      <trkpt lat="44.84978" lon="4.68052">
        <ele>578.37</ele>
        <time>2022-04-24T09:38:50Z</time>
      </trkpt>
      <trkpt lat="44.84959" lon="4.68062">
        <ele>575.01</ele>
        <time>2022-04-24T09:39:04Z</time>
      </trkpt>
      <trkpt lat="44.84955" lon="4.68062">
        <ele>574.04</ele>
        <time>2022-04-24T09:39:07Z</time>
      </trkpt>
      <trkpt lat="44.8495" lon="4.68063">
        <ele>572.12</ele>
        <time>2022-04-24T09:39:11Z</time>
      </trkpt>
      <trkpt lat="44.84938" lon="4.68066">
        <ele>566.83</ele>
        <time>2022-04-24T09:39:23Z</time>
      </trkpt>
      <trkpt lat="44.84922" lon="4.68068">
        <ele>564.91</ele>
        <time>2022-04-24T09:39:36Z</time>
      </trkpt>
      <trkpt lat="44.84904" lon="4.6807">
        <ele>564.91</ele>
        <time>2022-04-24T09:39:49Z</time>
      </trkpt>
      <trkpt lat="44.84889" lon="4.68068">
        <ele>564.91</ele>
        <time>2022-04-24T09:39:59Z</time>
      </trkpt>
      <trkpt lat="44.84869" lon="4.68071">
        <ele>565.87</ele>
        <time>2022-04-24T09:40:11Z</time>
      </trkpt>
      <trkpt lat="44.84846" lon="4.68074">
        <ele>568.28</ele>
        <time>2022-04-24T09:40:26Z</time>
      </trkpt>
      <trkpt lat="44.84825" lon="4.68077">
        <ele>572.6</ele>
        <time>2022-04-24T09:40:40Z</time>
      </trkpt>
      <trkpt lat="44.84806" lon="4.68081">
        <ele>572.6</ele>
        <time>2022-04-24T09:40:53Z</time>
      </trkpt>
      <trkpt lat="44.84791" lon="4.68088">
        <ele>567.8</ele>
        <time>2022-04-24T09:41:05Z</time>
      </trkpt>
      <trkpt lat="44.84769" lon="4.68093">
        <ele>560.11</ele>
        <time>2022-04-24T09:41:18Z</time>
      </trkpt>
      <trkpt lat="44.84759" lon="4.68093">
        <ele>557.22</ele>
        <time>2022-04-24T09:41:35Z</time>
      </trkpt>
      <trkpt lat="44.84749" lon="4.68096">
        <ele>555.78</ele>
        <time>2022-04-24T09:41:42Z</time>
      </trkpt>
      <trkpt lat="44.84733" lon="4.68104">
        <ele>554.82</ele>
        <time>2022-04-24T09:41:56Z</time>
      </trkpt>
      <trkpt lat="44.8472" lon="4.68113">
        <ele>555.78</ele>
        <time>2022-04-24T09:42:09Z</time>
      </trkpt>
      <trkpt lat="44.8471" lon="4.68129">
        <ele>558.18</ele>
        <time>2022-04-24T09:42:23Z</time>
      </trkpt>
      <trkpt lat="44.84696" lon="4.68151">
        <ele>562.51</ele>
        <time>2022-04-24T09:42:39Z</time>
      </trkpt>
      <trkpt lat="44.84676" lon="4.68168">
        <ele>564.91</ele>
        <time>2022-04-24T09:42:56Z</time>
      </trkpt>
      <trkpt lat="44.84658" lon="4.68181">
        <ele>568.76</ele>
        <time>2022-04-24T09:43:10Z</time>
      </trkpt>
      <trkpt lat="44.84644" lon="4.68183">
        <ele>577.41</ele>
        <time>2022-04-24T09:43:23Z</time>
      </trkpt>
      <trkpt lat="44.84634" lon="4.68188">
        <ele>578.85</ele>
        <time>2022-04-24T09:43:30Z</time>
      </trkpt>
      <trkpt lat="44.84631" lon="4.68191">
        <ele>578.85</ele>
        <time>2022-04-24T09:43:33Z</time>
      </trkpt>
      <trkpt lat="44.84622" lon="4.68196">
        <ele>579.33</ele>
        <time>2022-04-24T09:43:40Z</time>
      </trkpt>
      <trkpt lat="44.84606" lon="4.68204">
        <ele>579.33</ele>
        <time>2022-04-24T09:43:52Z</time>
      </trkpt>
      <trkpt lat="44.84601" lon="4.68204">
        <ele>578.85</ele>
        <time>2022-04-24T09:43:56Z</time>
      </trkpt>
      <trkpt lat="44.84579" lon="4.68208">
        <ele>576.93</ele>
        <time>2022-04-24T09:44:10Z</time>
      </trkpt>
      <trkpt lat="44.84559" lon="4.68211">
        <ele>576.45</ele>
        <time>2022-04-24T09:44:24Z</time>
      </trkpt>
      <trkpt lat="44.8454" lon="4.68216">
        <ele>576.45</ele>
        <time>2022-04-24T09:44:38Z</time>
      </trkpt>
      <trkpt lat="44.84536" lon="4.68216">
        <ele>576.45</ele>
        <time>2022-04-24T09:44:41Z</time>
      </trkpt>
      <trkpt lat="44.84515" lon="4.68218">
        <ele>575.49</ele>
        <time>2022-04-24T09:44:54Z</time>
      </trkpt>
      <trkpt lat="44.84507" lon="4.68221">
        <ele>574.04</ele>
        <time>2022-04-24T09:44:58Z</time>
      </trkpt>
      <trkpt lat="44.8449" lon="4.68229">
        <ele>569.72</ele>
        <time>2022-04-24T09:45:11Z</time>
      </trkpt>
      <trkpt lat="44.8448" lon="4.68232">
        <ele>568.28</ele>
        <time>2022-04-24T09:45:22Z</time>
      </trkpt>
      <trkpt lat="44.84466" lon="4.68235">
        <ele>567.32</ele>
        <time>2022-04-24T09:45:32Z</time>
      </trkpt>
      <trkpt lat="44.84453" lon="4.68239">
        <ele>564.91</ele>
        <time>2022-04-24T09:45:41Z</time>
      </trkpt>
      <trkpt lat="44.84433" lon="4.68239">
        <ele>562.99</ele>
        <time>2022-04-24T09:45:54Z</time>
      </trkpt>
      <trkpt lat="44.84415" lon="4.68242">
        <ele>562.03</ele>
        <time>2022-04-24T09:46:06Z</time>
      </trkpt>
      <trkpt lat="44.84407" lon="4.68242">
        <ele>561.07</ele>
        <time>2022-04-24T09:46:12Z</time>
      </trkpt>
      <trkpt lat="44.84391" lon="4.68241">
        <ele>560.11</ele>
        <time>2022-04-24T09:46:24Z</time>
      </trkpt>
      <trkpt lat="44.84375" lon="4.68253">
        <ele>553.38</ele>
        <time>2022-04-24T09:46:38Z</time>
      </trkpt>
      <trkpt lat="44.84349" lon="4.68249">
        <ele>551.45</ele>
        <time>2022-04-24T09:46:51Z</time>
      </trkpt>
      <trkpt lat="44.84327" lon="4.68248">
        <ele>550.49</ele>
        <time>2022-04-24T09:47:08Z</time>
      </trkpt>
      <trkpt lat="44.84308" lon="4.68241">
        <ele>550.49</ele>
        <time>2022-04-24T09:47:19Z</time>
      </trkpt>
      <trkpt lat="44.84284" lon="4.68238">
        <ele>550.01</ele>
        <time>2022-04-24T09:47:35Z</time>
      </trkpt>
      <trkpt lat="44.84266" lon="4.68235">
        <ele>550.49</ele>
        <time>2022-04-24T09:47:49Z</time>
      </trkpt>
      <trkpt lat="44.84246" lon="4.68224">
        <ele>550.01</ele>
        <time>2022-04-24T09:48:04Z</time>
      </trkpt>
      <trkpt lat="44.84224" lon="4.68219">
        <ele>548.09</ele>
        <time>2022-04-24T09:48:19Z</time>
      </trkpt>
      <trkpt lat="44.842" lon="4.68218">
        <ele>543.28</ele>
        <time>2022-04-24T09:48:33Z</time>
      </trkpt>
      <trkpt lat="44.84178" lon="4.68218">
        <ele>538.48</ele>
        <time>2022-04-24T09:48:49Z</time>
      </trkpt>
      <trkpt lat="44.84156" lon="4.68221">
        <ele>531.27</ele>
        <time>2022-04-24T09:49:04Z</time>
      </trkpt>
      <trkpt lat="44.84137" lon="4.68228">
        <ele>518.77</ele>
        <time>2022-04-24T09:49:18Z</time>
      </trkpt>
      <trkpt lat="44.84115" lon="4.68238">
        <ele>504.35</ele>
        <time>2022-04-24T09:49:35Z</time>
      </trkpt>
      <trkpt lat="44.8411" lon="4.68239">
        <ele>501.95</ele>
        <time>2022-04-24T09:49:37Z</time>
      </trkpt>
      <trkpt lat="44.84081" lon="4.68248">
        <ele>495.22</ele>
        <time>2022-04-24T09:49:53Z</time>
      </trkpt>
      <trkpt lat="44.84061" lon="4.68257">
        <ele>491.85</ele>
        <time>2022-04-24T09:50:09Z</time>
      </trkpt>
      <trkpt lat="44.84048" lon="4.68265">
        <ele>489.93</ele>
        <time>2022-04-24T09:50:16Z</time>
      </trkpt>
      <trkpt lat="44.84035" lon="4.68289">
        <ele>490.89</ele>
        <time>2022-04-24T09:50:30Z</time>
      </trkpt>
      <trkpt lat="44.84025" lon="4.68317">
        <ele>489.93</ele>
        <time>2022-04-24T09:50:44Z</time>
      </trkpt>
      <trkpt lat="44.84016" lon="4.68338">
        <ele>491.37</ele>
        <time>2022-04-24T09:50:57Z</time>
      </trkpt>
      <trkpt lat="44.84014" lon="4.68349">
        <ele>490.41</ele>
        <time>2022-04-24T09:51:03Z</time>
      </trkpt>
      <trkpt lat="44.84007" lon="4.68375">
        <ele>486.56</ele>
        <time>2022-04-24T09:51:16Z</time>
      </trkpt>
      <trkpt lat="44.84007" lon="4.68387">
        <ele>487.05</ele>
        <time>2022-04-24T09:51:23Z</time>
      </trkpt>
      <trkpt lat="44.84007" lon="4.68409">
        <ele>483.2</ele>
        <time>2022-04-24T09:51:39Z</time>
      </trkpt>
      <trkpt lat="44.84006" lon="4.68415">
        <ele>479.84</ele>
        <time>2022-04-24T09:51:44Z</time>
      </trkpt>
      <trkpt lat="44.84003" lon="4.68424">
        <ele>474.55</ele>
        <time>2022-04-24T09:51:55Z</time>
      </trkpt>
      <trkpt lat="44.83995" lon="4.68428">
        <ele>470.7</ele>
        <time>2022-04-24T09:52:09Z</time>
      </trkpt>
      <trkpt lat="44.83994" lon="4.68427">
        <ele>470.7</ele>
        <time>2022-04-24T09:52:11Z</time>
      </trkpt>
      <trkpt lat="44.83992" lon="4.68424">
        <ele>469.74</ele>
        <time>2022-04-24T09:52:15Z</time>
      </trkpt>
      <trkpt lat="44.83989" lon="4.68417">
        <ele>470.7</ele>
        <time>2022-04-24T09:52:20Z</time>
      </trkpt>
      <trkpt lat="44.83986" lon="4.68403">
        <ele>470.7</ele>
        <time>2022-04-24T09:52:27Z</time>
      </trkpt>
      <trkpt lat="44.83984" lon="4.68376">
        <ele>473.11</ele>
        <time>2022-04-24T09:52:41Z</time>
      </trkpt>
      <trkpt lat="44.83983" lon="4.6837">
        <ele>473.59</ele>
        <time>2022-04-24T09:52:44Z</time>
      </trkpt>
      <trkpt lat="44.83985" lon="4.68337">
        <ele>474.55</ele>
        <time>2022-04-24T09:53:00Z</time>
      </trkpt>
      <trkpt lat="44.8399" lon="4.68298">
        <ele>473.11</ele>
        <time>2022-04-24T09:53:18Z</time>
      </trkpt>
      <trkpt lat="44.83993" lon="4.68273">
        <ele>469.26</ele>
        <time>2022-04-24T09:53:30Z</time>
      </trkpt>
      <trkpt lat="44.84001" lon="4.68264">
        <ele>466.86</ele>
        <time>2022-04-24T09:53:44Z</time>
      </trkpt>
      <trkpt lat="44.84001" lon="4.68255">
        <ele>464.45</ele>
        <time>2022-04-24T09:53:57Z</time>
      </trkpt>
      <trkpt lat="44.83999" lon="4.6825">
        <ele>463.49</ele>
        <time>2022-04-24T09:54:17Z</time>
      </trkpt>
      <trkpt lat="44.84" lon="4.68248">
        <ele>460.61</ele>
        <time>2022-04-24T09:54:43Z</time>
      </trkpt>
      <trkpt lat="44.84001" lon="4.68245">
        <ele>459.65</ele>
        <time>2022-04-24T09:55:01Z</time>
      </trkpt>
      <trkpt lat="44.84001" lon="4.68244">
        <ele>459.65</ele>
        <time>2022-04-24T09:55:19Z</time>
      </trkpt>
      <trkpt lat="44.84" lon="4.68248">
        <ele>460.61</ele>
        <time>2022-04-24T09:55:31Z</time>
      </trkpt>
      <trkpt lat="44.84004" lon="4.68259">
        <ele>460.61</ele>
        <time>2022-04-24T09:55:46Z</time>
      </trkpt>
      <trkpt lat="44.84005" lon="4.68259">
        <ele>461.09</ele>
        <time>2022-04-24T09:56:03Z</time>
      </trkpt>
      <trkpt lat="44.84007" lon="4.68257">
        <ele>463.97</ele>
        <time>2022-04-24T09:56:21Z</time>
      </trkpt>
      <trkpt lat="44.8401" lon="4.68258">
        <ele>468.3</ele>
        <time>2022-04-24T09:56:35Z</time>
      </trkpt>
      <trkpt lat="44.84006" lon="4.68261">
        <ele>472.14</ele>
        <time>2022-04-24T09:56:53Z</time>
      </trkpt>
      <trkpt lat="44.84004" lon="4.68259">
        <ele>468.3</ele>
        <time>2022-04-24T09:57:09Z</time>
      </trkpt>
      <trkpt lat="44.84002" lon="4.68263">
        <ele>463.97</ele>
        <time>2022-04-24T09:57:23Z</time>
      </trkpt>
      <trkpt lat="44.83997" lon="4.68265">
        <ele>463.49</ele>
        <time>2022-04-24T09:57:35Z</time>
      </trkpt>
      <trkpt lat="44.83992" lon="4.68245">
        <ele>462.53</ele>
        <time>2022-04-24T09:57:49Z</time>
      </trkpt>
      <trkpt lat="44.83988" lon="4.68233">
        <ele>463.01</ele>
        <time>2022-04-24T09:57:57Z</time>
      </trkpt>
      <trkpt lat="44.83984" lon="4.68221">
        <ele>464.45</ele>
        <time>2022-04-24T09:58:09Z</time>
      </trkpt>
      <trkpt lat="44.83973" lon="4.68198">
        <ele>467.82</ele>
        <time>2022-04-24T09:58:24Z</time>
      </trkpt>
      <trkpt lat="44.83963" lon="4.68178">
        <ele>470.7</ele>
        <time>2022-04-24T09:58:36Z</time>
      </trkpt>
      <trkpt lat="44.83959" lon="4.68159">
        <ele>472.63</ele>
        <time>2022-04-24T09:58:47Z</time>
      </trkpt>
      <trkpt lat="44.83963" lon="4.68138">
        <ele>475.51</ele>
        <time>2022-04-24T09:59:02Z</time>
      </trkpt>
      <trkpt lat="44.83973" lon="4.68138">
        <ele>484.64</ele>
        <time>2022-04-24T09:59:17Z</time>
      </trkpt>
      <trkpt lat="44.83975" lon="4.68134">
        <ele>486.56</ele>
        <time>2022-04-24T09:59:20Z</time>
      </trkpt>
      <trkpt lat="44.83965" lon="4.68129">
        <ele>494.26</ele>
        <time>2022-04-24T09:59:34Z</time>
      </trkpt>
      <trkpt lat="44.83963" lon="4.68128">
        <ele>494.26</ele>
        <time>2022-04-24T09:59:37Z</time>
      </trkpt>
      <trkpt lat="44.83956" lon="4.68125">
        <ele>494.26</ele>
        <time>2022-04-24T09:59:43Z</time>
      </trkpt>
      <trkpt lat="44.83932" lon="4.68111">
        <ele>490.41</ele>
        <time>2022-04-24T09:59:59Z</time>
      </trkpt>
      <trkpt lat="44.83935" lon="4.68079">
        <ele>469.74</ele>
        <time>2022-04-24T10:00:12Z</time>
      </trkpt>
      <trkpt lat="44.83915" lon="4.68064">
        <ele>448.11</ele>
        <time>2022-04-24T10:00:29Z</time>
      </trkpt>
      <trkpt lat="44.83911" lon="4.68065">
        <ele>442.82</ele>
        <time>2022-04-24T10:00:45Z</time>
      </trkpt>
      <trkpt lat="44.83909" lon="4.68058">
        <ele>440.42</ele>
        <time>2022-04-24T10:00:54Z</time>
      </trkpt>
      <trkpt lat="44.83909" lon="4.68049">
        <ele>440.9</ele>
        <time>2022-04-24T10:00:59Z</time>
      </trkpt>
      <trkpt lat="44.83914" lon="4.68028">
        <ele>441.86</ele>
        <time>2022-04-24T10:01:13Z</time>
      </trkpt>
      <trkpt lat="44.83924" lon="4.67998">
        <ele>438.98</ele>
        <time>2022-04-24T10:01:29Z</time>
      </trkpt>
      <trkpt lat="44.83924" lon="4.67994">
        <ele>438.02</ele>
        <time>2022-04-24T10:01:31Z</time>
      </trkpt>
      <trkpt lat="44.83917" lon="4.67968">
        <ele>439.46</ele>
        <time>2022-04-24T10:01:48Z</time>
      </trkpt>
      <trkpt lat="44.83909" lon="4.6796">
        <ele>439.94</ele>
        <time>2022-04-24T10:01:57Z</time>
      </trkpt>
      <trkpt lat="44.83895" lon="4.67947">
        <ele>435.61</ele>
        <time>2022-04-24T10:02:13Z</time>
      </trkpt>
      <trkpt lat="44.83891" lon="4.67932">
        <ele>431.29</ele>
        <time>2022-04-24T10:02:26Z</time>
      </trkpt>
      <trkpt lat="44.83892" lon="4.67931">
        <ele>430.81</ele>
        <time>2022-04-24T10:02:27Z</time>
      </trkpt>
      <trkpt lat="44.83905" lon="4.67912">
        <ele>423.12</ele>
        <time>2022-04-24T10:02:44Z</time>
      </trkpt>
      <trkpt lat="44.83917" lon="4.679">
        <ele>420.71</ele>
        <time>2022-04-24T10:03:01Z</time>
      </trkpt>
      <trkpt lat="44.83929" lon="4.6788">
        <ele>418.31</ele>
        <time>2022-04-24T10:03:17Z</time>
      </trkpt>
      <trkpt lat="44.83928" lon="4.67879">
        <ele>418.79</ele>
        <time>2022-04-24T10:03:19Z</time>
      </trkpt>
      <trkpt lat="44.83907" lon="4.6787">
        <ele>418.79</ele>
        <time>2022-04-24T10:03:34Z</time>
      </trkpt>
      <trkpt lat="44.83898" lon="4.67868">
        <ele>414.95</ele>
        <time>2022-04-24T10:03:42Z</time>
      </trkpt>
      <trkpt lat="44.83872" lon="4.67864">
        <ele>412.54</ele>
        <time>2022-04-24T10:03:58Z</time>
      </trkpt>
      <trkpt lat="44.83858" lon="4.67865">
        <ele>404.37</ele>
        <time>2022-04-24T10:04:11Z</time>
      </trkpt>
      <trkpt lat="44.8383" lon="4.67866">
        <ele>393.8</ele>
        <time>2022-04-24T10:04:27Z</time>
      </trkpt>
      <trkpt lat="44.83813" lon="4.67872">
        <ele>384.18</ele>
        <time>2022-04-24T10:04:40Z</time>
      </trkpt>
      <trkpt lat="44.83787" lon="4.67873">
        <ele>377.94</ele>
        <time>2022-04-24T10:04:55Z</time>
      </trkpt>
      <trkpt lat="44.83771" lon="4.67879">
        <ele>375.05</ele>
        <time>2022-04-24T10:05:07Z</time>
      </trkpt>
      <trkpt lat="44.83753" lon="4.67883">
        <ele>372.17</ele>
        <time>2022-04-24T10:05:22Z</time>
      </trkpt>
      <trkpt lat="44.83738" lon="4.67882">
        <ele>371.69</ele>
        <time>2022-04-24T10:05:38Z</time>
      </trkpt>
      <trkpt lat="44.83721" lon="4.67876">
        <ele>374.09</ele>
        <time>2022-04-24T10:05:55Z</time>
      </trkpt>
      <trkpt lat="44.83707" lon="4.67869">
        <ele>372.65</ele>
        <time>2022-04-24T10:06:15Z</time>
      </trkpt>
      <trkpt lat="44.83691" lon="4.67869">
        <ele>368.32</ele>
        <time>2022-04-24T10:06:32Z</time>
      </trkpt>
      <trkpt lat="44.83666" lon="4.67873">
        <ele>365.92</ele>
        <time>2022-04-24T10:06:48Z</time>
      </trkpt>
      <trkpt lat="44.83645" lon="4.67874">
        <ele>365.92</ele>
        <time>2022-04-24T10:07:05Z</time>
      </trkpt>
      <trkpt lat="44.83621" lon="4.67878">
        <ele>363.52</ele>
        <time>2022-04-24T10:07:20Z</time>
      </trkpt>
      <trkpt lat="44.83607" lon="4.67873">
        <ele>359.19</ele>
        <time>2022-04-24T10:07:34Z</time>
      </trkpt>
      <trkpt lat="44.83606" lon="4.67873">
        <ele>359.19</ele>
        <time>2022-04-24T10:07:35Z</time>
      </trkpt>
      <trkpt lat="44.83587" lon="4.67863">
        <ele>354.38</ele>
        <time>2022-04-24T10:07:52Z</time>
      </trkpt>
      <trkpt lat="44.83563" lon="4.67855">
        <ele>346.69</ele>
        <time>2022-04-24T10:08:05Z</time>
      </trkpt>
      <trkpt lat="44.83544" lon="4.67856">
        <ele>339</ele>
        <time>2022-04-24T10:08:16Z</time>
      </trkpt>
      <trkpt lat="44.83535" lon="4.67859">
        <ele>336.6</ele>
        <time>2022-04-24T10:08:21Z</time>
      </trkpt>
      <trkpt lat="44.83513" lon="4.67882">
        <ele>330.35</ele>
        <time>2022-04-24T10:08:36Z</time>
      </trkpt>
      <trkpt lat="44.83502" lon="4.67898">
        <ele>331.79</ele>
        <time>2022-04-24T10:08:49Z</time>
      </trkpt>
      <trkpt lat="44.83489" lon="4.67918">
        <ele>336.6</ele>
        <time>2022-04-24T10:09:04Z</time>
      </trkpt>
      <trkpt lat="44.83476" lon="4.67932">
        <ele>338.04</ele>
        <time>2022-04-24T10:09:17Z</time>
      </trkpt>
      <trkpt lat="44.83465" lon="4.67943">
        <ele>327.95</ele>
        <time>2022-04-24T10:09:32Z</time>
      </trkpt>
      <trkpt lat="44.83443" lon="4.67932">
        <ele>324.58</ele>
        <time>2022-04-24T10:09:49Z</time>
      </trkpt>
      <trkpt lat="44.83443" lon="4.67921">
        <ele>322.18</ele>
        <time>2022-04-24T10:09:59Z</time>
      </trkpt>
      <trkpt lat="44.83459" lon="4.67897">
        <ele>317.85</ele>
        <time>2022-04-24T10:10:16Z</time>
      </trkpt>
      <trkpt lat="44.83471" lon="4.67869">
        <ele>321.22</ele>
        <time>2022-04-24T10:10:34Z</time>
      </trkpt>
      <trkpt lat="44.83464" lon="4.67843">
        <ele>322.66</ele>
        <time>2022-04-24T10:10:52Z</time>
      </trkpt>
      <trkpt lat="44.8346" lon="4.67814">
        <ele>325.54</ele>
        <time>2022-04-24T10:11:08Z</time>
      </trkpt>
      <trkpt lat="44.83468" lon="4.67782">
        <ele>325.54</ele>
        <time>2022-04-24T10:11:23Z</time>
      </trkpt>
      <trkpt lat="44.83465" lon="4.67769">
        <ele>326.02</ele>
        <time>2022-04-24T10:11:30Z</time>
      </trkpt>
      <trkpt lat="44.83465" lon="4.6775">
        <ele>323.62</ele>
        <time>2022-04-24T10:11:44Z</time>
      </trkpt>
      <trkpt lat="44.83469" lon="4.67714">
        <ele>320.74</ele>
        <time>2022-04-24T10:12:01Z</time>
      </trkpt>
      <trkpt lat="44.83462" lon="4.67704">
        <ele>318.33</ele>
        <time>2022-04-24T10:12:15Z</time>
      </trkpt>
      <trkpt lat="44.83462" lon="4.67673">
        <ele>305.84</ele>
        <time>2022-04-24T10:12:32Z</time>
      </trkpt>
      <trkpt lat="44.83454" lon="4.67662">
        <ele>302.95</ele>
        <time>2022-04-24T10:12:47Z</time>
      </trkpt>
      <trkpt lat="44.83436" lon="4.67652">
        <ele>291.42</ele>
        <time>2022-04-24T10:13:00Z</time>
      </trkpt>
      <trkpt lat="44.83427" lon="4.67647">
        <ele>281.8</ele>
        <time>2022-04-24T10:13:13Z</time>
      </trkpt>
      <trkpt lat="44.83424" lon="4.67647">
        <ele>278.92</ele>
        <time>2022-04-24T10:13:17Z</time>
      </trkpt>
      <trkpt lat="44.83407" lon="4.67655">
        <ele>270.27</ele>
        <time>2022-04-24T10:13:33Z</time>
      </trkpt>
      <trkpt lat="44.83397" lon="4.6766">
        <ele>266.9</ele>
        <time>2022-04-24T10:13:42Z</time>
      </trkpt>
      <trkpt lat="44.83386" lon="4.67664">
        <ele>261.14</ele>
        <time>2022-04-24T10:13:55Z</time>
      </trkpt>
      <trkpt lat="44.8338" lon="4.67658">
        <ele>258.25</ele>
        <time>2022-04-24T10:14:06Z</time>
      </trkpt>
      <trkpt lat="44.83366" lon="4.67654">
        <ele>253.44</ele>
        <time>2022-04-24T10:14:18Z</time>
      </trkpt>
      <trkpt lat="44.83358" lon="4.67641">
        <ele>249.6</ele>
        <time>2022-04-24T10:14:32Z</time>
      </trkpt>
      <trkpt lat="44.8335" lon="4.67628">
        <ele>248.16</ele>
        <time>2022-04-24T10:14:45Z</time>
      </trkpt>
      <trkpt lat="44.83341" lon="4.67617">
        <ele>247.2</ele>
        <time>2022-04-24T10:15:00Z</time>
      </trkpt>
      <trkpt lat="44.83338" lon="4.67603">
        <ele>238.06</ele>
        <time>2022-04-24T10:15:12Z</time>
      </trkpt>
      <trkpt lat="44.83333" lon="4.67606">
        <ele>234.22</ele>
        <time>2022-04-24T10:15:25Z</time>
      </trkpt>
      <trkpt lat="44.83328" lon="4.67597">
        <ele>230.37</ele>
        <time>2022-04-24T10:15:42Z</time>
      </trkpt>
      <trkpt lat="44.83329" lon="4.67585">
        <ele>228.45</ele>
        <time>2022-04-24T10:15:51Z</time>
      </trkpt>
      <trkpt lat="44.83323" lon="4.67578">
        <ele>223.16</ele>
        <time>2022-04-24T10:16:05Z</time>
      </trkpt>
      <trkpt lat="44.83323" lon="4.67575">
        <ele>222.68</ele>
        <time>2022-04-24T10:16:08Z</time>
      </trkpt>
      <trkpt lat="44.83318" lon="4.67563">
        <ele>219.32</ele>
        <time>2022-04-24T10:16:22Z</time>
      </trkpt>
      <trkpt lat="44.83312" lon="4.6756">
        <ele>215.47</ele>
        <time>2022-04-24T10:16:37Z</time>
      </trkpt>
      <trkpt lat="44.83305" lon="4.67558">
        <ele>209.7</ele>
        <time>2022-04-24T10:16:54Z</time>
      </trkpt>
      <trkpt lat="44.83297" lon="4.67551">
        <ele>206.82</ele>
        <time>2022-04-24T10:17:10Z</time>
      </trkpt>
      <trkpt lat="44.83297" lon="4.67535">
        <ele>203.46</ele>
        <time>2022-04-24T10:17:20Z</time>
      </trkpt>
      <trkpt lat="44.83289" lon="4.67537">
        <ele>203.94</ele>
        <time>2022-04-24T10:17:33Z</time>
      </trkpt>
      <trkpt lat="44.83273" lon="4.67539">
        <ele>202.01</ele>
        <time>2022-04-24T10:17:48Z</time>
      </trkpt>
      <trkpt lat="44.83268" lon="4.67539">
        <ele>200.09</ele>
        <time>2022-04-24T10:17:54Z</time>
      </trkpt>
      <trkpt lat="44.83259" lon="4.67541">
        <ele>199.61</ele>
        <time>2022-04-24T10:18:08Z</time>
      </trkpt>
      <trkpt lat="44.83252" lon="4.67538">
        <ele>199.13</ele>
        <time>2022-04-24T10:18:22Z</time>
      </trkpt>
      <trkpt lat="44.83246" lon="4.67536">
        <ele>198.17</ele>
        <time>2022-04-24T10:18:26Z</time>
      </trkpt>
      <trkpt lat="44.83234" lon="4.67533">
        <ele>199.13</ele>
        <time>2022-04-24T10:18:39Z</time>
      </trkpt>
      <trkpt lat="44.83221" lon="4.67529">
        <ele>192.4</ele>
        <time>2022-04-24T10:18:52Z</time>
      </trkpt>
      <trkpt lat="44.8322" lon="4.67521">
        <ele>189.04</ele>
        <time>2022-04-24T10:19:06Z</time>
      </trkpt>
      <trkpt lat="44.83211" lon="4.67524">
        <ele>188.56</ele>
        <time>2022-04-24T10:19:23Z</time>
      </trkpt>
      <trkpt lat="44.83198" lon="4.67535">
        <ele>190.96</ele>
        <time>2022-04-24T10:19:38Z</time>
      </trkpt>
      <trkpt lat="44.83187" lon="4.67543">
        <ele>196.25</ele>
        <time>2022-04-24T10:19:52Z</time>
      </trkpt>
      <trkpt lat="44.8317" lon="4.6755">
        <ele>193.84</ele>
        <time>2022-04-24T10:20:08Z</time>
      </trkpt>
      <trkpt lat="44.83161" lon="4.67568">
        <ele>190.96</ele>
        <time>2022-04-24T10:20:23Z</time>
      </trkpt>
      <trkpt lat="44.83152" lon="4.67583">
        <ele>188.08</ele>
        <time>2022-04-24T10:20:36Z</time>
      </trkpt>
      <trkpt lat="44.83146" lon="4.67587">
        <ele>186.63</ele>
        <time>2022-04-24T10:20:50Z</time>
      </trkpt>
      <trkpt lat="44.83144" lon="4.67574">
        <ele>188.08</ele>
        <time>2022-04-24T10:21:06Z</time>
      </trkpt>
      <trkpt lat="44.83134" lon="4.67568">
        <ele>193.36</ele>
        <time>2022-04-24T10:21:25Z</time>
      </trkpt>
      <trkpt lat="44.83103" lon="4.67558">
        <ele>172.69</ele>
        <time>2022-04-24T10:21:44Z</time>
      </trkpt>
      <trkpt lat="44.83096" lon="4.67558">
        <ele>170.77</ele>
        <time>2022-04-24T10:21:55Z</time>
      </trkpt>
      <trkpt lat="44.83087" lon="4.67562">
        <ele>175.58</ele>
        <time>2022-04-24T10:22:12Z</time>
      </trkpt>
      <trkpt lat="44.83076" lon="4.67566">
        <ele>177.98</ele>
        <time>2022-04-24T10:22:26Z</time>
      </trkpt>
      <trkpt lat="44.83048" lon="4.67563">
        <ele>181.35</ele>
        <time>2022-04-24T10:22:43Z</time>
      </trkpt>
      <trkpt lat="44.83028" lon="4.67571">
        <ele>182.31</ele>
        <time>2022-04-24T10:22:57Z</time>
      </trkpt>
      <trkpt lat="44.83004" lon="4.67571">
        <ele>187.59</ele>
        <time>2022-04-24T10:23:16Z</time>
      </trkpt>
      <trkpt lat="44.82994" lon="4.67583">
        <ele>192.88</ele>
        <time>2022-04-24T10:23:34Z</time>
      </trkpt>
      <trkpt lat="44.82987" lon="4.67586">
        <ele>193.36</ele>
        <time>2022-04-24T10:23:40Z</time>
      </trkpt>
      <trkpt lat="44.82951" lon="4.67592">
        <ele>194.32</ele>
        <time>2022-04-24T10:23:59Z</time>
      </trkpt>
      <trkpt lat="44.82918" lon="4.67599">
        <ele>185.19</ele>
        <time>2022-04-24T10:24:19Z</time>
      </trkpt>
      <trkpt lat="44.82913" lon="4.67602">
        <ele>187.59</ele>
        <time>2022-04-24T10:24:35Z</time>
      </trkpt>
      <trkpt lat="44.82902" lon="4.67624">
        <ele>180.38</ele>
        <time>2022-04-24T10:24:58Z</time>
      </trkpt>
      <trkpt lat="44.829" lon="4.67624">
        <ele>175.58</ele>
        <time>2022-04-24T10:25:20Z</time>
      </trkpt>
      <trkpt lat="44.82901" lon="4.67621">
        <ele>175.1</ele>
        <time>2022-04-24T10:25:36Z</time>
      </trkpt>
      <trkpt lat="44.8289" lon="4.67617">
        <ele>179.42</ele>
        <time>2022-04-24T10:25:58Z</time>
      </trkpt>
      <trkpt lat="44.82897" lon="4.67612">
        <ele>183.75</ele>
        <time>2022-04-24T10:26:16Z</time>
      </trkpt>
      <trkpt lat="44.82898" lon="4.67622">
        <ele>184.71</ele>
        <time>2022-04-24T10:26:38Z</time>
      </trkpt>
      <trkpt lat="44.82907" lon="4.67608">
        <ele>184.23</ele>
        <time>2022-04-24T10:27:18Z</time>
      </trkpt>
      <trkpt lat="44.82906" lon="4.67609">
        <ele>183.27</ele>
        <time>2022-04-24T10:27:36Z</time>
      </trkpt>
      <trkpt lat="44.82909" lon="4.67611">
        <ele>182.31</ele>
        <time>2022-04-24T10:27:58Z</time>
      </trkpt>
      <trkpt lat="44.82913" lon="4.67592">
        <ele>183.27</ele>
        <time>2022-04-24T10:28:18Z</time>
      </trkpt>
      <trkpt lat="44.8286" lon="4.67616">
        <ele>182.79</ele>
        <time>2022-04-24T10:35:57Z</time>
      </trkpt>
      <trkpt lat="44.82871" lon="4.67605">
        <ele>169.33</ele>
        <time>2022-04-24T10:36:22Z</time>
      </trkpt>
      <trkpt lat="44.82894" lon="4.67602">
        <ele>163.08</ele>
        <time>2022-04-24T10:36:49Z</time>
      </trkpt>
      <trkpt lat="44.82912" lon="4.67599">
        <ele>153.47</ele>
        <time>2022-04-24T10:37:16Z</time>
      </trkpt>
      <trkpt lat="44.82908" lon="4.67599">
        <ele>148.66</ele>
        <time>2022-04-24T10:37:42Z</time>
      </trkpt>
      <trkpt lat="44.82917" lon="4.67604">
        <ele>149.14</ele>
        <time>2022-04-24T10:38:06Z</time>
      </trkpt>
      <trkpt lat="44.82917" lon="4.67602">
        <ele>149.14</ele>
        <time>2022-04-24T10:38:29Z</time>
      </trkpt>
      <trkpt lat="44.82913" lon="4.67597">
        <ele>149.14</ele>
        <time>2022-04-24T10:39:00Z</time>
      </trkpt>
      <trkpt lat="44.82913" lon="4.67603">
        <ele>154.43</ele>
        <time>2022-04-24T10:39:25Z</time>
      </trkpt>
      <trkpt lat="44.82919" lon="4.67601">
        <ele>155.39</ele>
        <time>2022-04-24T10:39:33Z</time>
      </trkpt>
      <trkpt lat="44.82955" lon="4.67618">
        <ele>156.35</ele>
        <time>2022-04-24T10:40:01Z</time>
      </trkpt>
      <trkpt lat="44.82959" lon="4.6762">
        <ele>157.79</ele>
        <time>2022-04-24T10:40:30Z</time>
      </trkpt>
      <trkpt lat="44.82956" lon="4.67614">
        <ele>157.79</ele>
        <time>2022-04-24T10:40:56Z</time>
      </trkpt>
      <trkpt lat="44.82941" lon="4.67616">
        <ele>158.27</ele>
        <time>2022-04-24T10:41:20Z</time>
      </trkpt>
      <trkpt lat="44.82935" lon="4.67613">
        <ele>158.27</ele>
        <time>2022-04-24T10:41:47Z</time>
      </trkpt>
      <trkpt lat="44.82929" lon="4.67609">
        <ele>154.91</ele>
        <time>2022-04-24T10:42:11Z</time>
      </trkpt>
      <trkpt lat="44.82923" lon="4.67602">
        <ele>150.58</ele>
        <time>2022-04-24T10:42:37Z</time>
      </trkpt>
      <trkpt lat="44.82922" lon="4.67603">
        <ele>151.06</ele>
        <time>2022-04-24T10:43:02Z</time>
      </trkpt>
      <trkpt lat="44.82913" lon="4.67606">
        <ele>152.99</ele>
        <time>2022-04-24T10:43:23Z</time>
      </trkpt>
      <trkpt lat="44.82914" lon="4.67604">
        <ele>158.27</ele>
        <time>2022-04-24T10:43:50Z</time>
      </trkpt>
      <trkpt lat="44.82911" lon="4.67603">
        <ele>161.16</ele>
        <time>2022-04-24T10:44:16Z</time>
      </trkpt>
      <trkpt lat="44.82908" lon="4.67598">
        <ele>159.24</ele>
        <time>2022-04-24T10:44:37Z</time>
      </trkpt>
      <trkpt lat="44.8289" lon="4.67589">
        <ele>155.39</ele>
        <time>2022-04-24T10:45:00Z</time>
      </trkpt>
      <trkpt lat="44.8287" lon="4.67589">
        <ele>154.43</ele>
        <time>2022-04-24T10:45:24Z</time>
      </trkpt>
      <trkpt lat="44.82883" lon="4.67591">
        <ele>153.47</ele>
        <time>2022-04-24T10:45:51Z</time>
      </trkpt>
      <trkpt lat="44.82894" lon="4.67596">
        <ele>157.79</ele>
        <time>2022-04-24T10:46:14Z</time>
      </trkpt>
      <trkpt lat="44.82902" lon="4.67599">
        <ele>159.72</ele>
        <time>2022-04-24T10:46:42Z</time>
      </trkpt>
      <trkpt lat="44.82915" lon="4.67607">
        <ele>165.48</ele>
        <time>2022-04-24T10:47:10Z</time>
      </trkpt>
      <trkpt lat="44.82909" lon="4.67612">
        <ele>170.77</ele>
        <time>2022-04-24T10:47:37Z</time>
      </trkpt>
      <trkpt lat="44.82897" lon="4.67617">
        <ele>175.1</ele>
        <time>2022-04-24T10:48:04Z</time>
      </trkpt>
      <trkpt lat="44.82892" lon="4.67613">
        <ele>173.17</ele>
        <time>2022-04-24T10:48:31Z</time>
      </trkpt>
      <trkpt lat="44.82908" lon="4.67593">
        <ele>164.52</ele>
        <time>2022-04-24T10:48:56Z</time>
      </trkpt>
      <trkpt lat="44.82912" lon="4.67602">
        <ele>165.48</ele>
        <time>2022-04-24T10:49:19Z</time>
      </trkpt>
      <trkpt lat="44.82917" lon="4.67603">
        <ele>169.81</ele>
        <time>2022-04-24T10:49:42Z</time>
      </trkpt>
      <trkpt lat="44.82912" lon="4.67604">
        <ele>166.93</ele>
        <time>2022-04-24T10:50:13Z</time>
      </trkpt>
      <trkpt lat="44.829" lon="4.67604">
        <ele>156.35</ele>
        <time>2022-04-24T10:50:42Z</time>
      </trkpt>
      <trkpt lat="44.829" lon="4.676">
        <ele>152.03</ele>
        <time>2022-04-24T10:51:08Z</time>
      </trkpt>
      <trkpt lat="44.82904" lon="4.67597">
        <ele>153.47</ele>
        <time>2022-04-24T10:51:33Z</time>
      </trkpt>
      <trkpt lat="44.82909" lon="4.67601">
        <ele>152.03</ele>
        <time>2022-04-24T10:52:00Z</time>
      </trkpt>
      <trkpt lat="44.82898" lon="4.67606">
        <ele>155.39</ele>
        <time>2022-04-24T10:52:23Z</time>
      </trkpt>
      <trkpt lat="44.829" lon="4.67607">
        <ele>155.87</ele>
        <time>2022-04-24T10:52:25Z</time>
      </trkpt>
      <trkpt lat="44.82896" lon="4.6761">
        <ele>155.39</ele>
        <time>2022-04-24T10:52:32Z</time>
      </trkpt>
      <trkpt lat="44.82896" lon="4.67615">
        <ele>153.95</ele>
        <time>2022-04-24T10:52:37Z</time>
      </trkpt>
      <trkpt lat="44.82879" lon="4.67627">
        <ele>158.75</ele>
        <time>2022-04-24T10:52:55Z</time>
      </trkpt>
      <trkpt lat="44.82864" lon="4.67633">
        <ele>157.79</ele>
        <time>2022-04-24T10:53:06Z</time>
      </trkpt>
      <trkpt lat="44.8286" lon="4.67633">
        <ele>158.27</ele>
        <time>2022-04-24T10:53:09Z</time>
      </trkpt>
      <trkpt lat="44.82855" lon="4.67636">
        <ele>159.24</ele>
        <time>2022-04-24T10:53:14Z</time>
      </trkpt>
      <trkpt lat="44.82837" lon="4.67646">
        <ele>158.75</ele>
        <time>2022-04-24T10:53:29Z</time>
      </trkpt>
      <trkpt lat="44.82819" lon="4.67659">
        <ele>154.43</ele>
        <time>2022-04-24T10:53:45Z</time>
      </trkpt>
      <trkpt lat="44.82799" lon="4.67668">
        <ele>152.51</ele>
        <time>2022-04-24T10:54:01Z</time>
      </trkpt>
      <trkpt lat="44.82781" lon="4.67677">
        <ele>151.06</ele>
        <time>2022-04-24T10:54:16Z</time>
      </trkpt>
      <trkpt lat="44.82767" lon="4.67689">
        <ele>151.54</ele>
        <time>2022-04-24T10:54:32Z</time>
      </trkpt>
      <trkpt lat="44.82748" lon="4.67699">
        <ele>152.03</ele>
        <time>2022-04-24T10:54:49Z</time>
      </trkpt>
      <trkpt lat="44.82725" lon="4.67711">
        <ele>153.47</ele>
        <time>2022-04-24T10:55:07Z</time>
      </trkpt>
      <trkpt lat="44.82702" lon="4.67723">
        <ele>156.83</ele>
        <time>2022-04-24T10:55:25Z</time>
      </trkpt>
      <trkpt lat="44.82682" lon="4.67734">
        <ele>154.91</ele>
        <time>2022-04-24T10:55:41Z</time>
      </trkpt>
      <trkpt lat="44.82658" lon="4.67748">
        <ele>153.95</ele>
        <time>2022-04-24T10:55:59Z</time>
      </trkpt>
      <trkpt lat="44.82641" lon="4.67757">
        <ele>154.91</ele>
        <time>2022-04-24T10:56:15Z</time>
      </trkpt>
      <trkpt lat="44.82637" lon="4.6776">
        <ele>154.43</ele>
        <time>2022-04-24T10:56:20Z</time>
      </trkpt>
      <trkpt lat="44.82636" lon="4.67765">
        <ele>154.91</ele>
        <time>2022-04-24T10:56:23Z</time>
      </trkpt>
      <trkpt lat="44.82629" lon="4.67806">
        <ele>154.91</ele>
        <time>2022-04-24T10:56:43Z</time>
      </trkpt>
      <trkpt lat="44.82628" lon="4.67846">
        <ele>152.51</ele>
        <time>2022-04-24T10:57:04Z</time>
      </trkpt>
      <trkpt lat="44.82628" lon="4.67882">
        <ele>152.51</ele>
        <time>2022-04-24T10:57:23Z</time>
      </trkpt>
      <trkpt lat="44.82628" lon="4.67892">
        <ele>152.03</ele>
        <time>2022-04-24T10:57:28Z</time>
      </trkpt>
      <trkpt lat="44.82633" lon="4.67922">
        <ele>152.51</ele>
        <time>2022-04-24T10:57:45Z</time>
      </trkpt>
      <trkpt lat="44.82637" lon="4.67936">
        <ele>155.39</ele>
        <time>2022-04-24T10:57:54Z</time>
      </trkpt>
      <trkpt lat="44.8264" lon="4.67943">
        <ele>155.39</ele>
        <time>2022-04-24T10:57:58Z</time>
      </trkpt>
      <trkpt lat="44.82642" lon="4.6798">
        <ele>153.47</ele>
        <time>2022-04-24T10:58:18Z</time>
      </trkpt>
      <trkpt lat="44.82643" lon="4.67993">
        <ele>153.95</ele>
        <time>2022-04-24T10:58:26Z</time>
      </trkpt>
      <trkpt lat="44.82636" lon="4.68011">
        <ele>154.91</ele>
        <time>2022-04-24T10:58:37Z</time>
      </trkpt>
      <trkpt lat="44.82642" lon="4.68039">
        <ele>155.87</ele>
        <time>2022-04-24T10:58:52Z</time>
      </trkpt>
      <trkpt lat="44.82641" lon="4.68046">
        <ele>155.87</ele>
        <time>2022-04-24T10:58:58Z</time>
      </trkpt>
      <trkpt lat="44.82636" lon="4.68047">
        <ele>156.35</ele>
        <time>2022-04-24T10:59:04Z</time>
      </trkpt>
      <trkpt lat="44.82629" lon="4.68039">
        <ele>154.43</ele>
        <time>2022-04-24T10:59:12Z</time>
      </trkpt>
      <trkpt lat="44.8262" lon="4.68029">
        <ele>154.91</ele>
        <time>2022-04-24T10:59:25Z</time>
      </trkpt>
      <trkpt lat="44.82616" lon="4.68022">
        <ele>156.83</ele>
        <time>2022-04-24T10:59:40Z</time>
      </trkpt>
      <trkpt lat="44.82615" lon="4.68021">
        <ele>158.27</ele>
        <time>2022-04-24T10:59:54Z</time>
      </trkpt>
      <trkpt lat="44.82616" lon="4.6802">
        <ele>156.83</ele>
        <time>2022-04-24T11:00:13Z</time>
      </trkpt>
      <trkpt lat="44.82613" lon="4.68018">
        <ele>155.39</ele>
        <time>2022-04-24T11:00:34Z</time>
      </trkpt>
      <trkpt lat="44.82614" lon="4.6802">
        <ele>155.87</ele>
        <time>2022-04-24T11:00:56Z</time>
      </trkpt>
      <trkpt lat="44.82614" lon="4.6802">
        <ele>157.79</ele>
        <time>2022-04-24T11:01:17Z</time>
      </trkpt>
    </trkseg>
  </trk>
</gpx>